Time,TemperatureF,DewpointF,PressureIn,WindDirection,WindDirectionDegrees,WindSpeedMPH,WindSpeedGustMPH,Humidity,HourlyPrecipIn,Conditions,Clouds,dailyrainin,SoftwareType,DateUTC
2013-06-27 00:00:00,72.5,69.7,28.95,NE,44,6.0,7.0,91,0.00,,,0.00,WUHU216DAVISVP2,2013-06-27 04:00:00,
2013-06-27 00:01:00,72.6,69.8,28.95,ENE,60,6.0,8.0,91,0.00,,,0.00,WUHU216DAVISVP2,2013-06-27 04:01:00,
2013-06-27 00:02:00,72.5,69.7,28.95,NE,38,7.0,8.0,91,0.00,,,0.00,WUHU216DAVISVP2,2013-06-27 04:02:00,
2013-06-27 00:06:00,72.5,69.7,28.95,ENE,69,6.0,9.0,91,0.00,,,0.00,WUHU216DAVISVP2,2013-06-27 04:06:00,
2013-06-27 00:07:00,72.4,69.6,28.95,ENE,75,5.0,9.0,91,0.00,,,0.00,WUHU216DAVISVP2,2013-06-27 04:07:00,
2013-06-27 00:11:00,72.3,69.5,28.95,NE,52,7.0,9.0,91,0.00,,,0.00,WUHU216DAVISVP2,2013-06-27 04:11:00,
2013-06-27 00:12:00,72.3,69.5,28.95,NE,50,5.0,9.0,91,0.00,,,0.00,WUHU216DAVISVP2,2013-06-27 04:12:00,
2013-06-27 00:16:00,72.1,69.3,28.95,ENE,59,7.0,10.0,91,0.00,,,0.00,WUHU216DAVISVP2,2013-06-27 04:16:00,
2013-06-27 00:17:00,72.0,69.2,28.95,ENE,64,8.0,11.0,91,0.00,,,0.00,WUHU216DAVISVP2,2013-06-27 04:17:00,
2013-06-27 00:21:00,71.9,69.1,28.95,East,83,4.0,11.0,91,0.00,,,0.00,WUHU216DAVISVP2,2013-06-27 04:21:00,
2013-06-27 00:22:00,71.9,69.1,28.95,East,90,6.0,11.0,91,0.00,,,0.00,WUHU216DAVISVP2,2013-06-27 04:22:00,
2013-06-27 00:26:00,71.8,69.3,28.95,East,96,2.0,11.0,92,0.00,,,0.00,WUHU216DAVISVP2,2013-06-27 04:26:00,
2013-06-27 00:27:00,71.7,69.2,28.95,East,96,0.0,11.0,92,0.00,,,0.00,WUHU216DAVISVP2,2013-06-27 04:27:00,
2013-06-27 00:31:00,71.7,68.9,28.95,ESE,112,4.0,11.0,91,0.00,,,0.00,WUHU216DAVISVP2,2013-06-27 04:31:00,
2013-06-27 00:32:00,71.7,68.9,28.95,ESE,114,3.0,11.0,91,0.00,,,0.00,WUHU216DAVISVP2,2013-06-27 04:32:00,
2013-06-27 00:33:00,71.8,69.0,28.96,ESE,118,1.0,11.0,91,0.00,,,0.00,WUHU216DAVISVP2,2013-06-27 04:33:00,
2013-06-27 00:36:00,72.0,69.2,28.95,ESE,117,1.0,10.0,91,0.00,,,0.00,WUHU216DAVISVP2,2013-06-27 04:36:00,
2013-06-27 00:37:00,72.0,69.2,28.95,ESE,117,0.0,8.0,91,0.00,,,0.00,WUHU216DAVISVP2,2013-06-27 04:37:00,
2013-06-27 00:38:00,72.0,69.2,28.95,ESE,110,1.0,7.0,91,0.00,,,0.00,WUHU216DAVISVP2,2013-06-27 04:38:00,
2013-06-27 00:41:00,72.0,69.2,28.95,ESE,110,0.0,7.0,91,0.00,,,0.00,WUHU216DAVISVP2,2013-06-27 04:41:00,
2013-06-27 00:42:00,72.0,69.2,28.95,ESE,110,0.0,7.0,91,0.00,,,0.00,WUHU216DAVISVP2,2013-06-27 04:42:00,
2013-06-27 00:43:00,72.0,69.2,28.95,ESE,110,0.0,7.0,91,0.00,,,0.00,WUHU216DAVISVP2,2013-06-27 04:43:00,
2013-06-27 00:47:00,71.8,69.0,28.95,ESE,109,0.0,7.0,91,0.00,,,0.00,WUHU216DAVISVP2,2013-06-27 04:47:00,
2013-06-27 00:48:00,71.8,69.0,28.95,ESE,109,0.0,5.0,91,0.00,,,0.00,WUHU216DAVISVP2,2013-06-27 04:48:00,
2013-06-27 00:52:00,71.8,69.0,28.95,ESE,109,0.0,4.0,91,0.00,,,0.00,WUHU216DAVISVP2,2013-06-27 04:52:00,
2013-06-27 00:53:00,71.8,69.3,28.95,ESE,110,0.0,4.0,92,0.00,,,0.00,WUHU216DAVISVP2,2013-06-27 04:53:00,
2013-06-27 00:54:00,71.8,69.3,28.95,ESE,110,0.0,4.0,92,0.00,,,0.00,WUHU216DAVISVP2,2013-06-27 04:54:00,
2013-06-27 00:57:00,71.7,69.3,28.95,ESE,110,2.0,2.0,92,0.00,,,0.00,WUHU216DAVISVP2,2013-06-27 04:57:00,
2013-06-27 00:58:00,71.6,69.2,28.95,ESE,109,2.0,3.0,92,0.00,,,0.00,WUHU216DAVISVP2,2013-06-27 04:58:00,
2013-06-27 00:59:00,71.6,69.2,28.95,ESE,110,4.0,4.0,92,0.00,,,0.00,WUHU216DAVISVP2,2013-06-27 04:59:00,
2013-06-27 01:02:00,71.5,69.0,28.95,NE,52,4.0,5.0,92,0.00,,,0.00,WUHU216DAVISVP2,2013-06-27 05:02:00,
2013-06-27 01:03:00,71.5,69.0,28.95,NE,52,5.0,5.0,92,0.00,,,0.00,WUHU216DAVISVP2,2013-06-27 05:03:00,
2013-06-27 01:04:00,71.4,69.2,28.94,NE,52,4.0,5.0,93,0.00,,,0.00,WUHU216DAVISVP2,2013-06-27 05:04:00,
2013-06-27 01:07:00,71.3,69.1,28.94,NE,52,0.0,5.0,93,0.00,,,0.00,WUHU216DAVISVP2,2013-06-27 05:07:00,
2013-06-27 01:08:00,71.3,69.1,28.94,NE,52,1.0,5.0,93,0.00,,,0.00,WUHU216DAVISVP2,2013-06-27 05:08:00,
2013-06-27 01:09:00,71.3,69.2,28.94,NE,53,0.0,5.0,93,0.00,,,0.00,WUHU216DAVISVP2,2013-06-27 05:09:00,
2013-06-27 01:13:00,71.2,69.1,28.94,ENE,62,5.0,5.0,93,0.00,,,0.00,WUHU216DAVISVP2,2013-06-27 05:13:00,
2013-06-27 01:14:00,71.2,69.1,28.94,ENE,67,6.0,6.0,93,0.00,,,0.00,WUHU216DAVISVP2,2013-06-27 05:14:00,
2013-06-27 01:15:00,71.2,69.1,28.93,SSE,160,5.0,7.0,93,0.00,,,0.00,WUHU216DAVISVP2,2013-06-27 05:15:00,
2013-06-27 01:18:00,71.3,69.5,28.94,South,175,2.0,7.0,94,0.00,,,0.00,WUHU216DAVISVP2,2013-06-27 05:18:00,
2013-06-27 01:19:00,71.3,69.5,28.94,SSW,209,4.0,7.0,94,0.00,,,0.00,WUHU216DAVISVP2,2013-06-27 05:19:00,
2013-06-27 01:20:00,71.3,69.5,28.94,SSW,210,0.0,7.0,94,0.00,,,0.00,WUHU216DAVISVP2,2013-06-27 05:20:00,
2013-06-27 01:23:00,71.3,69.5,28.94,ESE,122,0.0,7.0,94,0.00,,,0.00,WUHU216DAVISVP2,2013-06-27 05:23:00,
2013-06-27 01:24:00,71.3,69.5,28.94,East,94,2.0,7.0,94,0.00,,,0.00,WUHU216DAVISVP2,2013-06-27 05:24:00,
2013-06-27 01:25:00,71.2,69.4,28.94,East,79,4.0,7.0,94,0.00,,,0.00,WUHU216DAVISVP2,2013-06-27 05:25:00,
2013-06-27 01:28:00,71.1,69.3,28.94,East,80,3.0,7.0,94,0.00,,,0.00,WUHU216DAVISVP2,2013-06-27 05:28:00,
2013-06-27 01:29:00,71.1,69.3,28.94,ESE,102,5.0,7.0,94,0.00,,,0.00,WUHU216DAVISVP2,2013-06-27 05:29:00,
2013-06-27 01:30:00,71.0,69.2,28.93,ESE,120,4.0,7.0,94,0.00,,,0.00,WUHU216DAVISVP2,2013-06-27 05:30:00,
2013-06-27 01:33:00,71.0,69.2,28.93,ESE,120,1.0,7.0,94,0.00,,,0.00,WUHU216DAVISVP2,2013-06-27 05:33:00,
2013-06-27 01:34:00,71.0,69.2,28.93,ESE,120,0.0,6.0,94,0.00,,,0.00,WUHU216DAVISVP2,2013-06-27 05:34:00,
2013-06-27 01:35:00,71.0,69.2,28.93,ESE,120,0.0,6.0,94,0.00,,,0.00,WUHU216DAVISVP2,2013-06-27 05:35:00,
2013-06-27 01:38:00,71.1,69.6,28.93,ESE,120,0.0,6.0,95,0.00,,,0.00,WUHU216DAVISVP2,2013-06-27 05:38:00,
2013-06-27 01:39:00,71.1,69.6,28.93,ESE,121,0.0,6.0,95,0.00,,,0.00,WUHU216DAVISVP2,2013-06-27 05:39:00,
2013-06-27 01:40:00,71.1,69.6,28.93,ESE,121,0.0,6.0,95,0.00,,,0.00,WUHU216DAVISVP2,2013-06-27 05:40:00,
2013-06-27 01:43:00,71.0,69.5,28.93,ESE,121,2.0,6.0,95,0.00,,,0.00,WUHU216DAVISVP2,2013-06-27 05:43:00,
2013-06-27 01:44:00,71.0,69.5,28.93,ESE,120,1.0,6.0,95,0.00,,,0.00,WUHU216DAVISVP2,2013-06-27 05:44:00,
2013-06-27 01:45:00,71.0,69.5,28.93,ESE,121,4.0,6.0,95,0.00,,,0.00,WUHU216DAVISVP2,2013-06-27 05:45:00,
2013-06-27 01:48:00,70.9,69.4,28.93,ESE,121,1.0,5.0,95,0.00,,,0.00,WUHU216DAVISVP2,2013-06-27 05:48:00,
2013-06-27 01:49:00,70.8,69.3,28.93,ESE,121,1.0,4.0,95,0.00,,,0.00,WUHU216DAVISVP2,2013-06-27 05:49:00,
2013-06-27 01:50:00,70.8,69.3,28.93,ESE,121,0.0,4.0,95,0.00,,,0.00,WUHU216DAVISVP2,2013-06-27 05:50:00,
2013-06-27 01:53:00,70.8,69.3,28.93,ESE,121,0.0,4.0,95,0.00,,,0.00,WUHU216DAVISVP2,2013-06-27 05:53:00,
2013-06-27 01:54:00,70.8,69.3,28.93,ESE,121,0.0,4.0,95,0.00,,,0.00,WUHU216DAVISVP2,2013-06-27 05:54:00,
2013-06-27 01:55:00,70.8,69.3,28.93,ESE,121,0.0,4.0,95,0.00,,,0.00,WUHU216DAVISVP2,2013-06-27 05:55:00,
2013-06-27 01:58:00,70.8,69.3,28.93,ESE,121,0.0,4.0,95,0.00,,,0.00,WUHU216DAVISVP2,2013-06-27 05:58:00,
2013-06-27 01:59:00,70.8,69.3,28.93,ESE,120,0.0,4.0,95,0.00,,,0.00,WUHU216DAVISVP2,2013-06-27 05:59:00,
2013-06-27 02:00:00,70.8,69.3,28.93,ESE,120,1.0,4.0,95,0.00,,,0.00,WUHU216DAVISVP2,2013-06-27 06:00:00,
2013-06-27 02:01:00,70.9,69.4,28.93,ESE,121,2.0,4.0,95,0.00,,,0.00,WUHU216DAVISVP2,2013-06-27 06:01:00,
2013-06-27 02:03:00,70.8,69.3,28.93,ESE,120,0.0,4.0,95,0.00,,,0.00,WUHU216DAVISVP2,2013-06-27 06:03:00,
2013-06-27 02:04:00,70.9,69.4,28.93,ESE,120,0.0,2.0,95,0.00,,,0.00,WUHU216DAVISVP2,2013-06-27 06:04:00,
2013-06-27 02:05:00,70.9,69.4,28.93,ESE,120,0.0,2.0,95,0.00,,,0.00,WUHU216DAVISVP2,2013-06-27 06:05:00,
2013-06-27 02:06:00,70.9,69.4,28.93,ESE,120,0.0,2.0,95,0.00,,,0.00,WUHU216DAVISVP2,2013-06-27 06:06:00,
2013-06-27 02:08:00,70.9,69.4,28.93,ESE,120,2.0,2.0,95,0.00,,,0.00,WUHU216DAVISVP2,2013-06-27 06:08:00,
2013-06-27 02:09:00,70.9,69.4,28.93,ESE,120,0.0,2.0,95,0.00,,,0.00,WUHU216DAVISVP2,2013-06-27 06:09:00,
2013-06-27 02:10:00,71.0,69.5,28.93,ESE,120,0.0,2.0,95,0.00,,,0.00,WUHU216DAVISVP2,2013-06-27 06:10:00,
2013-06-27 02:12:00,71.0,69.5,28.93,ESE,121,0.0,2.0,95,0.00,,,0.00,WUHU216DAVISVP2,2013-06-27 06:12:00,
2013-06-27 02:14:00,71.1,69.6,28.93,ESE,120,1.0,2.0,95,0.00,,,0.00,WUHU216DAVISVP2,2013-06-27 06:14:00,
2013-06-27 02:15:00,71.1,69.6,28.93,ESE,120,1.0,4.0,95,0.00,,,0.00,WUHU216DAVISVP2,2013-06-27 06:15:00,
2013-06-27 02:16:00,71.1,69.6,28.93,ESE,120,1.0,4.0,95,0.00,,,0.00,WUHU216DAVISVP2,2013-06-27 06:16:00,
2013-06-27 02:18:00,71.2,69.7,28.94,ESE,120,0.0,4.0,95,0.00,,,0.00,WUHU216DAVISVP2,2013-06-27 06:18:00,
2013-06-27 02:19:00,71.1,69.6,28.93,ESE,121,0.0,4.0,95,0.00,,,0.00,WUHU216DAVISVP2,2013-06-27 06:19:00,
2013-06-27 02:20:00,71.2,69.7,28.93,ESE,120,0.0,4.0,95,0.00,,,0.00,WUHU216DAVISVP2,2013-06-27 06:20:00,
2013-06-27 02:21:00,71.2,69.7,28.93,ESE,120,0.0,4.0,95,0.00,,,0.00,WUHU216DAVISVP2,2013-06-27 06:21:00,
2013-06-27 02:24:00,71.2,69.7,28.93,ESE,120,0.0,4.0,95,0.00,,,0.00,WUHU216DAVISVP2,2013-06-27 06:24:00,
2013-06-27 02:25:00,71.1,69.6,28.93,ESE,120,0.0,4.0,95,0.00,,,0.00,WUHU216DAVISVP2,2013-06-27 06:25:00,
2013-06-27 02:26:00,71.1,69.6,28.93,ESE,120,0.0,4.0,95,0.00,,,0.00,WUHU216DAVISVP2,2013-06-27 06:26:00,
2013-06-27 02:29:00,71.1,69.6,28.93,ESE,121,0.0,4.0,95,0.00,,,0.00,WUHU216DAVISVP2,2013-06-27 06:29:00,
2013-06-27 02:30:00,71.1,69.6,28.93,ESE,121,0.0,4.0,95,0.00,,,0.00,WUHU216DAVISVP2,2013-06-27 06:30:00,
2013-06-27 02:31:00,71.1,69.6,28.93,ESE,121,0.0,4.0,95,0.00,,,0.00,WUHU216DAVISVP2,2013-06-27 06:31:00,
2013-06-27 02:34:00,71.0,69.5,28.93,ESE,120,1.0,2.0,95,0.00,,,0.00,WUHU216DAVISVP2,2013-06-27 06:34:00,
2013-06-27 02:35:00,71.1,69.6,28.93,ESE,121,1.0,2.0,95,0.00,,,0.00,WUHU216DAVISVP2,2013-06-27 06:35:00,
2013-06-27 02:36:00,71.1,69.9,28.93,ESE,120,2.0,3.0,96,0.00,,,0.00,WUHU216DAVISVP2,2013-06-27 06:36:00,
2013-06-27 02:39:00,71.2,70.0,28.93,SSW,211,0.0,5.0,96,0.00,,,0.00,WUHU216DAVISVP2,2013-06-27 06:39:00,
2013-06-27 02:40:00,71.1,69.9,28.93,SSW,211,1.0,5.0,96,0.00,,,0.00,WUHU216DAVISVP2,2013-06-27 06:40:00,
2013-06-27 02:41:00,71.1,69.9,28.93,SSW,211,0.0,5.0,96,0.00,,,0.00,WUHU216DAVISVP2,2013-06-27 06:41:00,
2013-06-27 02:42:00,71.1,69.9,28.93,SSW,211,0.0,5.0,96,0.00,,,0.00,WUHU216DAVISVP2,2013-06-27 06:42:00,
2013-06-27 02:44:00,71.0,69.8,28.93,WSW,258,4.0,5.0,96,0.00,,,0.00,WUHU216DAVISVP2,2013-06-27 06:44:00,
2013-06-27 02:45:00,71.1,69.9,28.93,West,262,4.0,5.0,96,0.00,,,0.00,WUHU216DAVISVP2,2013-06-27 06:45:00,
2013-06-27 02:46:00,71.1,69.9,28.93,West,272,2.0,5.0,96,0.00,,,0.00,WUHU216DAVISVP2,2013-06-27 06:46:00,
2013-06-27 02:47:00,71.2,70.0,28.93,West,272,1.0,5.0,96,0.00,,,0.00,WUHU216DAVISVP2,2013-06-27 06:47:00,
2013-06-27 02:49:00,71.2,70.0,28.93,West,272,0.0,5.0,96,0.00,,,0.00,WUHU216DAVISVP2,2013-06-27 06:49:00,
2013-06-27 02:50:00,71.2,70.0,28.93,West,272,0.0,5.0,96,0.00,,,0.00,WUHU216DAVISVP2,2013-06-27 06:50:00,
2013-06-27 02:51:00,71.2,70.0,28.93,West,272,0.0,5.0,96,0.00,,,0.00,WUHU216DAVISVP2,2013-06-27 06:51:00,
2013-06-27 02:52:00,71.2,70.0,28.93,West,272,0.0,5.0,96,0.00,,,0.00,WUHU216DAVISVP2,2013-06-27 06:52:00,
2013-06-27 02:55:00,71.1,69.9,28.93,West,272,0.0,5.0,96,0.00,,,0.00,WUHU216DAVISVP2,2013-06-27 06:55:00,
2013-06-27 02:56:00,71.1,69.9,28.93,West,272,0.0,5.0,96,0.00,,,0.00,WUHU216DAVISVP2,2013-06-27 06:56:00,
2013-06-27 02:57:00,71.1,69.9,28.93,West,272,0.0,5.0,96,0.00,,,0.00,WUHU216DAVISVP2,2013-06-27 06:57:00,
2013-06-27 03:00:00,71.1,69.9,28.93,West,272,0.0,5.0,96,0.00,,,0.00,WUHU216DAVISVP2,2013-06-27 07:00:00,
2013-06-27 03:01:00,71.1,69.9,28.93,West,272,0.0,5.0,96,0.00,,,0.00,WUHU216DAVISVP2,2013-06-27 07:01:00,
2013-06-27 03:02:00,71.1,69.9,28.93,West,272,0.0,5.0,96,0.00,,,0.00,WUHU216DAVISVP2,2013-06-27 07:02:00,
2013-06-27 03:05:00,71.0,69.8,28.93,West,272,1.0,5.0,96,0.00,,,0.00,WUHU216DAVISVP2,2013-06-27 07:05:00,
2013-06-27 03:06:00,71.0,69.8,28.93,West,272,0.0,2.0,96,0.00,,,0.00,WUHU216DAVISVP2,2013-06-27 07:06:00,
2013-06-27 03:07:00,71.0,69.8,28.93,West,272,0.0,2.0,96,0.00,,,0.00,WUHU216DAVISVP2,2013-06-27 07:07:00,
2013-06-27 03:10:00,71.0,69.8,28.93,West,272,0.0,2.0,96,0.00,,,0.00,WUHU216DAVISVP2,2013-06-27 07:10:00,
2013-06-27 03:12:00,71.0,69.8,28.93,West,272,0.0,2.0,96,0.00,,,0.00,WUHU216DAVISVP2,2013-06-27 07:12:00,
2013-06-27 03:15:00,70.9,69.7,28.93,West,272,1.0,2.0,96,0.00,,,0.00,WUHU216DAVISVP2,2013-06-27 07:15:00,
2013-06-27 03:16:00,71.0,69.8,28.93,West,272,1.0,2.0,96,0.00,,,0.00,WUHU216DAVISVP2,2013-06-27 07:16:00,
2013-06-27 03:17:00,70.9,69.7,28.93,West,272,1.0,2.0,96,0.00,,,0.00,WUHU216DAVISVP2,2013-06-27 07:17:00,
2013-06-27 03:20:00,71.0,69.8,28.93,West,272,0.0,2.0,96,0.00,,,0.00,WUHU216DAVISVP2,2013-06-27 07:20:00,
2013-06-27 03:21:00,71.0,69.8,28.93,West,272,0.0,2.0,96,0.00,,,0.00,WUHU216DAVISVP2,2013-06-27 07:21:00,
2013-06-27 03:22:00,71.0,69.8,28.93,West,272,0.0,2.0,96,0.00,,,0.00,WUHU216DAVISVP2,2013-06-27 07:22:00,
2013-06-27 03:23:00,71.0,69.8,28.93,West,272,0.0,2.0,96,0.00,,,0.00,WUHU216DAVISVP2,2013-06-27 07:23:00,
2013-06-27 03:25:00,71.1,69.9,28.93,West,272,0.0,2.0,96,0.00,,,0.00,WUHU216DAVISVP2,2013-06-27 07:25:00,
2013-06-27 03:26:00,71.1,69.9,28.93,West,271,1.0,2.0,96,0.00,,,0.00,WUHU216DAVISVP2,2013-06-27 07:26:00,
2013-06-27 03:27:00,71.1,69.9,28.93,West,272,0.0,2.0,96,0.00,,,0.00,WUHU216DAVISVP2,2013-06-27 07:27:00,
2013-06-27 03:28:00,71.1,69.9,28.93,West,272,0.0,2.0,96,0.00,,,0.00,WUHU216DAVISVP2,2013-06-27 07:28:00,
2013-06-27 03:30:00,71.1,69.9,28.93,West,272,0.0,2.0,96,0.00,,,0.00,WUHU216DAVISVP2,2013-06-27 07:30:00,
2013-06-27 03:31:00,71.1,69.9,28.93,West,272,0.0,2.0,96,0.00,,,0.00,WUHU216DAVISVP2,2013-06-27 07:31:00,
2013-06-27 03:32:00,71.1,69.9,28.93,West,272,0.0,2.0,96,0.00,,,0.00,WUHU216DAVISVP2,2013-06-27 07:32:00,
2013-06-27 03:33:00,71.1,69.9,28.93,West,272,0.0,2.0,96,0.00,,,0.00,WUHU216DAVISVP2,2013-06-27 07:33:00,
2013-06-27 03:36:00,71.2,70.0,28.93,West,272,2.0,2.0,96,0.00,,,0.00,WUHU216DAVISVP2,2013-06-27 07:36:00,
2013-06-27 03:38:00,71.2,70.0,28.93,West,272,0.0,2.0,96,0.00,,,0.00,WUHU216DAVISVP2,2013-06-27 07:38:00,
2013-06-27 03:41:00,71.3,70.1,28.93,West,274,2.0,5.0,96,0.00,,,0.00,WUHU216DAVISVP2,2013-06-27 07:41:00,
2013-06-27 03:42:00,71.3,70.1,28.93,WNW,295,5.0,5.0,96,0.00,,,0.00,WUHU216DAVISVP2,2013-06-27 07:42:00,
2013-06-27 03:43:00,71.4,70.2,28.93,WNW,295,0.0,6.0,96,0.00,,,0.00,WUHU216DAVISVP2,2013-06-27 07:43:00,
2013-06-27 03:46:00,71.4,70.2,28.93,WNW,295,1.0,6.0,96,0.00,,,0.00,WUHU216DAVISVP2,2013-06-27 07:46:00,
2013-06-27 03:47:00,71.4,70.2,28.93,WNW,295,1.0,6.0,96,0.00,,,0.00,WUHU216DAVISVP2,2013-06-27 07:47:00,
2013-06-27 03:48:00,71.5,70.3,28.93,WNW,295,0.0,6.0,96,0.00,,,0.00,WUHU216DAVISVP2,2013-06-27 07:48:00,
2013-06-27 03:51:00,71.5,70.3,28.93,WNW,295,2.0,6.0,96,0.00,,,0.00,WUHU216DAVISVP2,2013-06-27 07:51:00,
2013-06-27 03:52:00,71.6,70.4,28.93,WNW,295,1.0,6.0,96,0.00,,,0.00,WUHU216DAVISVP2,2013-06-27 07:52:00,
2013-06-27 03:53:00,71.6,70.4,28.93,WNW,295,0.0,6.0,96,0.00,,,0.00,WUHU216DAVISVP2,2013-06-27 07:53:00,
2013-06-27 03:54:00,71.6,70.4,28.93,WNW,295,5.0,6.0,96,0.00,,,0.00,WUHU216DAVISVP2,2013-06-27 07:54:00,
2013-06-27 03:57:00,71.6,70.4,28.93,WNW,295,4.0,6.0,96,0.00,,,0.00,WUHU216DAVISVP2,2013-06-27 07:57:00,
2013-06-27 03:59:00,71.6,70.4,28.92,WNW,295,4.0,6.0,96,0.00,,,0.00,WUHU216DAVISVP2,2013-06-27 07:59:00,
2013-06-27 04:02:00,71.6,70.4,28.93,WNW,295,5.0,6.0,96,0.00,,,0.00,WUHU216DAVISVP2,2013-06-27 08:02:00,
2013-06-27 04:04:00,71.6,70.4,28.93,WNW,295,2.0,6.0,96,0.00,,,0.00,WUHU216DAVISVP2,2013-06-27 08:04:00,
2013-06-27 04:07:00,71.6,70.4,28.93,WNW,295,4.0,6.0,96,0.00,,,0.00,WUHU216DAVISVP2,2013-06-27 08:07:00,
2013-06-27 04:09:00,71.6,70.4,28.93,WNW,295,2.0,6.0,96,0.00,,,0.00,WUHU216DAVISVP2,2013-06-27 08:09:00,
2013-06-27 04:10:00,71.6,70.4,28.93,WNW,295,1.0,6.0,96,0.00,,,0.00,WUHU216DAVISVP2,2013-06-27 08:10:00,
2013-06-27 04:12:00,71.6,70.4,28.93,WNW,295,0.0,6.0,96,0.00,,,0.00,WUHU216DAVISVP2,2013-06-27 08:12:00,
2013-06-27 04:15:00,71.6,70.4,28.93,WNW,295,2.0,6.0,96,0.00,,,0.00,WUHU216DAVISVP2,2013-06-27 08:15:00,
2013-06-27 04:17:00,71.6,70.4,28.93,WNW,295,1.0,6.0,96,0.00,,,0.00,WUHU216DAVISVP2,2013-06-27 08:17:00,
2013-06-27 04:20:00,71.6,70.4,28.92,WNW,295,4.0,6.0,96,0.00,,,0.00,WUHU216DAVISVP2,2013-06-27 08:20:00,
2013-06-27 04:22:00,71.6,70.4,28.92,WNW,295,5.0,6.0,96,0.00,,,0.00,WUHU216DAVISVP2,2013-06-27 08:22:00,
2013-06-27 04:23:00,71.6,70.4,28.92,WNW,295,1.0,6.0,96,0.00,,,0.00,WUHU216DAVISVP2,2013-06-27 08:23:00,
2013-06-27 04:25:00,71.6,70.4,28.92,WNW,295,1.0,6.0,96,0.00,,,0.00,WUHU216DAVISVP2,2013-06-27 08:25:00,
2013-06-27 04:26:00,71.6,70.4,28.93,WNW,295,2.0,6.0,96,0.00,,,0.00,WUHU216DAVISVP2,2013-06-27 08:26:00,
2013-06-27 04:27:00,71.6,70.4,28.93,NW,309,5.0,7.0,96,0.00,,,0.00,WUHU216DAVISVP2,2013-06-27 08:27:00,
2013-06-27 04:28:00,71.6,70.4,28.93,NW,309,1.0,7.0,96,0.00,,,0.00,WUHU216DAVISVP2,2013-06-27 08:28:00,
2013-06-27 04:30:00,71.6,70.4,28.92,NW,308,4.0,7.0,96,0.00,,,0.00,WUHU216DAVISVP2,2013-06-27 08:30:00,
2013-06-27 04:31:00,71.6,70.4,28.92,NW,309,2.0,7.0,96,0.00,,,0.00,WUHU216DAVISVP2,2013-06-27 08:31:00,
2013-06-27 04:32:00,71.6,70.4,28.92,NW,309,0.0,7.0,96,0.00,,,0.00,WUHU216DAVISVP2,2013-06-27 08:32:00,
2013-06-27 04:33:00,71.6,70.4,28.92,NW,308,5.0,7.0,96,0.00,,,0.00,WUHU216DAVISVP2,2013-06-27 08:33:00,
2013-06-27 04:35:00,71.6,70.4,28.92,NW,308,1.0,7.0,96,0.00,,,0.00,WUHU216DAVISVP2,2013-06-27 08:35:00,
2013-06-27 04:36:00,71.6,70.4,28.92,NW,308,4.0,7.0,96,0.00,,,0.00,WUHU216DAVISVP2,2013-06-27 08:36:00,
2013-06-27 04:37:00,71.6,70.4,28.92,NW,308,4.0,7.0,96,0.00,,,0.00,WUHU216DAVISVP2,2013-06-27 08:37:00,
2013-06-27 04:38:00,71.6,70.4,28.92,NW,308,4.0,7.0,96,0.00,,,0.00,WUHU216DAVISVP2,2013-06-27 08:38:00,
2013-06-27 04:41:00,71.6,70.4,28.92,NW,308,2.0,7.0,96,0.00,,,0.00,WUHU216DAVISVP2,2013-06-27 08:41:00,
2013-06-27 04:42:00,71.6,70.4,28.92,NW,308,2.0,7.0,96,0.00,,,0.00,WUHU216DAVISVP2,2013-06-27 08:42:00,
2013-06-27 04:43:00,71.6,70.4,28.92,NW,308,4.0,7.0,96,0.00,,,0.00,WUHU216DAVISVP2,2013-06-27 08:43:00,
2013-06-27 04:44:00,71.6,70.4,28.92,NW,308,0.0,7.0,96,0.00,,,0.00,WUHU216DAVISVP2,2013-06-27 08:44:00,
2013-06-27 04:46:00,71.6,70.4,28.92,NW,308,2.0,7.0,96,0.00,,,0.00,WUHU216DAVISVP2,2013-06-27 08:46:00,
2013-06-27 04:48:00,71.5,70.3,28.92,NW,308,3.0,5.0,96,0.00,,,0.00,WUHU216DAVISVP2,2013-06-27 08:48:00,
2013-06-27 04:49:00,71.5,70.3,28.92,WNW,293,4.0,5.0,96,0.00,,,0.00,WUHU216DAVISVP2,2013-06-27 08:49:00,
2013-06-27 04:51:00,71.5,70.3,28.92,WNW,293,6.0,6.0,96,0.00,,,0.00,WUHU216DAVISVP2,2013-06-27 08:51:00,
2013-06-27 04:53:00,71.5,70.3,28.92,WNW,292,0.0,6.0,96,0.00,,,0.00,WUHU216DAVISVP2,2013-06-27 08:53:00,
2013-06-27 04:54:00,71.5,70.3,28.92,WNW,283,4.0,6.0,96,0.00,,,0.00,WUHU216DAVISVP2,2013-06-27 08:54:00,
2013-06-27 04:56:00,71.5,70.3,28.93,WNW,285,0.0,6.0,96,0.00,,,0.00,WUHU216DAVISVP2,2013-06-27 08:56:00,
2013-06-27 04:58:00,71.5,70.3,28.92,WNW,290,3.0,6.0,96,0.00,,,0.00,WUHU216DAVISVP2,2013-06-27 08:58:00,
2013-06-27 04:59:00,71.6,70.4,28.92,WNW,291,2.0,6.0,96,0.00,,,0.00,WUHU216DAVISVP2,2013-06-27 08:59:00,
2013-06-27 05:01:00,71.5,70.3,28.93,WNW,290,1.0,6.0,96,0.00,,,0.00,WUHU216DAVISVP2,2013-06-27 09:01:00,
2013-06-27 05:02:00,71.5,70.3,28.93,WNW,290,2.0,6.0,96,0.00,,,0.00,WUHU216DAVISVP2,2013-06-27 09:02:00,
2013-06-27 05:03:00,71.5,70.3,28.93,WNW,290,1.0,6.0,96,0.00,,,0.00,WUHU216DAVISVP2,2013-06-27 09:03:00,
2013-06-27 05:04:00,71.5,70.3,28.93,WNW,291,1.0,6.0,96,0.00,,,0.00,WUHU216DAVISVP2,2013-06-27 09:04:00,
2013-06-27 05:06:00,71.5,70.3,28.93,WNW,290,1.0,6.0,96,0.00,,,0.00,WUHU216DAVISVP2,2013-06-27 09:06:00,
2013-06-27 05:07:00,71.5,70.3,28.93,WNW,290,2.0,6.0,96,0.00,,,0.00,WUHU216DAVISVP2,2013-06-27 09:07:00,
2013-06-27 05:08:00,71.5,70.3,28.92,WNW,291,4.0,6.0,96,0.00,,,0.00,WUHU216DAVISVP2,2013-06-27 09:08:00,
2013-06-27 05:09:00,71.5,70.3,28.92,WNW,290,2.0,6.0,96,0.00,,,0.00,WUHU216DAVISVP2,2013-06-27 09:09:00,
2013-06-27 05:11:00,71.5,70.3,28.92,WNW,285,6.0,8.0,96,0.00,,,0.00,WUHU216DAVISVP2,2013-06-27 09:11:00,
2013-06-27 05:12:00,71.5,70.3,28.93,WNW,285,3.0,8.0,96,0.00,,,0.00,WUHU216DAVISVP2,2013-06-27 09:12:00,
2013-06-27 05:13:00,71.5,70.3,28.92,WNW,285,6.0,8.0,96,0.00,,,0.00,WUHU216DAVISVP2,2013-06-27 09:13:00,
2013-06-27 05:14:00,71.5,70.3,28.92,WNW,284,5.0,8.0,96,0.00,,,0.00,WUHU216DAVISVP2,2013-06-27 09:14:00,
2013-06-27 05:15:00,71.5,70.3,28.92,WNW,284,4.0,8.0,96,0.00,,,0.00,WUHU216DAVISVP2,2013-06-27 09:15:00,
2013-06-27 05:16:00,71.5,70.3,28.93,WNW,285,5.0,8.0,96,0.00,,,0.00,WUHU216DAVISVP2,2013-06-27 09:16:00,
2013-06-27 05:17:00,71.5,70.3,28.93,WNW,285,5.0,8.0,96,0.00,,,0.00,WUHU216DAVISVP2,2013-06-27 09:17:00,
2013-06-27 05:18:00,71.5,70.3,28.92,WNW,285,3.0,8.0,96,0.00,,,0.00,WUHU216DAVISVP2,2013-06-27 09:18:00,
2013-06-27 05:20:00,71.5,70.3,28.93,WNW,285,4.0,8.0,96,0.00,,,0.00,WUHU216DAVISVP2,2013-06-27 09:20:00,
2013-06-27 05:22:00,71.5,70.3,28.92,WNW,285,1.0,8.0,96,0.00,,,0.00,WUHU216DAVISVP2,2013-06-27 09:22:00,
2013-06-27 05:24:00,71.5,70.3,28.93,WNW,285,4.0,8.0,96,0.00,,,0.00,WUHU216DAVISVP2,2013-06-27 09:24:00,
2013-06-27 05:25:00,71.6,70.4,28.93,WNW,285,2.0,8.0,96,0.00,,,0.00,WUHU216DAVISVP2,2013-06-27 09:25:00,
2013-06-27 05:27:00,71.6,70.4,28.93,WNW,285,0.0,8.0,96,0.00,,,0.00,WUHU216DAVISVP2,2013-06-27 09:27:00,
2013-06-27 05:29:00,71.6,70.4,28.93,WNW,285,4.0,8.0,96,0.00,,,0.00,WUHU216DAVISVP2,2013-06-27 09:29:00,
2013-06-27 05:30:00,71.6,70.4,28.93,WNW,285,1.0,7.0,96,0.00,,,0.00,WUHU216DAVISVP2,2013-06-27 09:30:00,
2013-06-27 05:32:00,71.6,70.4,28.93,WNW,285,2.0,6.0,96,0.00,,,0.00,WUHU216DAVISVP2,2013-06-27 09:32:00,
2013-06-27 05:34:00,71.6,70.4,28.93,West,274,5.0,7.0,96,0.00,,,0.00,WUHU216DAVISVP2,2013-06-27 09:34:00,
2013-06-27 05:35:00,71.6,70.4,28.93,WNW,285,2.0,7.0,96,0.00,,,0.00,WUHU216DAVISVP2,2013-06-27 09:35:00,
2013-06-27 05:37:00,71.6,70.4,28.93,WNW,289,4.0,7.0,96,0.00,,,0.00,WUHU216DAVISVP2,2013-06-27 09:37:00,
2013-06-27 05:38:00,71.6,70.4,28.93,WNW,289,2.0,7.0,96,0.00,,,0.00,WUHU216DAVISVP2,2013-06-27 09:38:00,
2013-06-27 05:39:00,71.6,70.4,28.93,WNW,288,5.0,7.0,96,0.00,,,0.00,WUHU216DAVISVP2,2013-06-27 09:39:00,
2013-06-27 05:40:00,71.6,70.4,28.93,WNW,288,4.0,7.0,96,0.00,,,0.00,WUHU216DAVISVP2,2013-06-27 09:40:00,
2013-06-27 05:42:00,71.5,70.3,28.93,WNW,288,6.0,7.0,96,0.00,,,0.00,WUHU216DAVISVP2,2013-06-27 09:42:00,
2013-06-27 05:43:00,71.5,70.3,28.93,WNW,289,4.0,7.0,96,0.00,,,0.00,WUHU216DAVISVP2,2013-06-27 09:43:00,
2013-06-27 05:44:00,71.5,70.3,28.93,WNW,289,3.0,7.0,96,0.00,,,0.00,WUHU216DAVISVP2,2013-06-27 09:44:00,
2013-06-27 05:45:00,71.5,70.3,28.93,WNW,288,4.0,7.0,96,0.00,,,0.00,WUHU216DAVISVP2,2013-06-27 09:45:00,
2013-06-27 05:46:00,71.5,70.3,28.93,NW,310,5.0,7.0,96,0.00,,,0.00,WUHU216DAVISVP2,2013-06-27 09:46:00,
2013-06-27 05:48:00,71.5,70.3,28.93,WNW,285,6.0,7.0,96,0.00,,,0.00,WUHU216DAVISVP2,2013-06-27 09:48:00,
2013-06-27 05:49:00,71.5,70.3,28.93,WNW,285,2.0,7.0,96,0.00,,,0.00,WUHU216DAVISVP2,2013-06-27 09:49:00,
2013-06-27 05:50:00,71.5,70.3,28.93,WNW,285,6.0,7.0,96,0.00,,,0.00,WUHU216DAVISVP2,2013-06-27 09:50:00,
2013-06-27 05:51:00,71.5,70.3,28.93,WNW,285,4.0,7.0,96,0.00,,,0.00,WUHU216DAVISVP2,2013-06-27 09:51:00,
2013-06-27 05:53:00,71.5,70.3,28.93,WNW,303,6.0,7.0,96,0.00,,,0.00,WUHU216DAVISVP2,2013-06-27 09:53:00,
2013-06-27 05:54:00,71.5,70.3,28.93,WNW,303,5.0,7.0,96,0.00,,,0.00,WUHU216DAVISVP2,2013-06-27 09:54:00,
2013-06-27 05:55:00,71.5,70.3,28.93,WNW,293,4.0,7.0,96,0.00,,,0.00,WUHU216DAVISVP2,2013-06-27 09:55:00,
2013-06-27 05:57:00,71.5,70.3,28.93,WNW,293,1.0,7.0,96,0.00,,,0.00,WUHU216DAVISVP2,2013-06-27 09:57:00,
2013-06-27 05:58:00,71.5,70.3,28.93,WNW,293,3.0,7.0,96,0.00,,,0.00,WUHU216DAVISVP2,2013-06-27 09:58:00,
2013-06-27 05:59:00,71.5,70.3,28.93,WNW,293,2.0,7.0,96,0.00,,,0.00,WUHU216DAVISVP2,2013-06-27 09:59:00,
2013-06-27 06:01:00,71.5,70.3,28.93,WNW,293,2.0,7.0,96,0.00,,,0.00,WUHU216DAVISVP2,2013-06-27 10:01:00,
2013-06-27 06:02:00,71.5,70.3,28.93,WNW,293,5.0,7.0,96,0.00,,,0.00,WUHU216DAVISVP2,2013-06-27 10:02:00,
2013-06-27 06:04:00,71.5,70.3,28.93,WNW,293,4.0,7.0,96,0.00,,,0.00,WUHU216DAVISVP2,2013-06-27 10:04:00,
2013-06-27 06:06:00,71.5,70.3,28.93,WNW,299,7.0,8.0,96,0.00,,,0.00,WUHU216DAVISVP2,2013-06-27 10:06:00,
2013-06-27 06:07:00,71.5,70.3,28.94,WNW,295,5.0,9.0,96,0.00,,,0.00,WUHU216DAVISVP2,2013-06-27 10:07:00,
2013-06-27 06:09:00,71.4,70.2,28.93,WNW,301,6.0,9.0,96,0.00,,,0.00,WUHU216DAVISVP2,2013-06-27 10:09:00,
2013-06-27 06:11:00,71.5,70.3,28.93,WNW,282,4.0,9.0,96,0.00,,,0.00,WUHU216DAVISVP2,2013-06-27 10:11:00,
2013-06-27 06:12:00,71.5,70.3,28.93,WNW,282,4.0,9.0,96,0.00,,,0.00,WUHU216DAVISVP2,2013-06-27 10:12:00,
2013-06-27 06:14:00,71.5,70.3,28.94,WNW,282,6.0,9.0,96,0.00,,,0.00,WUHU216DAVISVP2,2013-06-27 10:14:00,
2013-06-27 06:15:00,71.5,70.3,28.94,WNW,282,2.0,9.0,96,0.00,,,0.00,WUHU216DAVISVP2,2013-06-27 10:15:00,
2013-06-27 06:16:00,71.5,70.3,28.94,North,359,3.0,9.0,96,0.00,,,0.00,WUHU216DAVISVP2,2013-06-27 10:16:00,
2013-06-27 06:17:00,71.5,70.3,28.94,NW,306,6.0,9.0,96,0.00,,,0.00,WUHU216DAVISVP2,2013-06-27 10:17:00,
2013-06-27 06:19:00,71.5,70.3,28.94,NW,315,2.0,9.0,96,0.00,,,0.00,WUHU216DAVISVP2,2013-06-27 10:19:00,
2013-06-27 06:20:00,71.5,70.3,28.94,NW,315,2.0,9.0,96,0.00,,,0.00,WUHU216DAVISVP2,2013-06-27 10:20:00,
2013-06-27 06:21:00,71.5,70.3,28.94,NW,314,5.0,9.0,96,0.00,,,0.00,WUHU216DAVISVP2,2013-06-27 10:21:00,
2013-06-27 06:22:00,71.5,70.3,28.94,NW,314,4.0,9.0,96,0.00,,,0.00,WUHU216DAVISVP2,2013-06-27 10:22:00,
2013-06-27 06:24:00,71.5,70.3,28.94,NW,314,4.0,9.0,96,0.00,,,0.00,WUHU216DAVISVP2,2013-06-27 10:24:00,
2013-06-27 06:25:00,71.5,70.3,28.94,WNW,295,5.0,9.0,96,0.00,,,0.00,WUHU216DAVISVP2,2013-06-27 10:25:00,
2013-06-27 06:27:00,71.5,70.3,28.94,WNW,298,3.0,8.0,96,0.00,,,0.00,WUHU216DAVISVP2,2013-06-27 10:27:00,
2013-06-27 06:28:00,71.5,70.3,28.94,WNW,299,2.0,8.0,96,0.00,,,0.00,WUHU216DAVISVP2,2013-06-27 10:28:00,
2013-06-27 06:29:00,71.5,70.3,28.94,WNW,299,4.0,8.0,96,0.00,,,0.00,WUHU216DAVISVP2,2013-06-27 10:29:00,
2013-06-27 06:30:00,71.5,70.3,28.94,WNW,298,4.0,8.0,96,0.00,,,0.00,WUHU216DAVISVP2,2013-06-27 10:30:00,
2013-06-27 06:32:00,71.5,70.3,28.94,WNW,298,6.0,8.0,96,0.00,,,0.00,WUHU216DAVISVP2,2013-06-27 10:32:00,
2013-06-27 06:33:00,71.6,70.4,28.94,WNW,299,4.0,8.0,96,0.00,,,0.00,WUHU216DAVISVP2,2013-06-27 10:33:00,
2013-06-27 06:35:00,71.5,70.3,28.94,WNW,295,3.0,9.0,96,0.00,,,0.00,WUHU216DAVISVP2,2013-06-27 10:35:00,
2013-06-27 06:36:00,71.5,70.3,28.94,WNW,293,7.0,9.0,96,0.00,,,0.00,WUHU216DAVISVP2,2013-06-27 10:36:00,
2013-06-27 06:37:00,71.5,70.3,28.94,WNW,288,7.0,9.0,96,0.00,,,0.00,WUHU216DAVISVP2,2013-06-27 10:37:00,
2013-06-27 06:38:00,71.5,70.3,28.94,WNW,288,5.0,9.0,96,0.00,,,0.00,WUHU216DAVISVP2,2013-06-27 10:38:00,
2013-06-27 06:40:00,71.5,70.3,28.94,WNW,289,4.0,9.0,96,0.00,,,0.00,WUHU216DAVISVP2,2013-06-27 10:40:00,
2013-06-27 06:41:00,71.6,70.4,28.94,WNW,289,5.0,9.0,96,0.00,,,0.00,WUHU216DAVISVP2,2013-06-27 10:41:00,
2013-06-27 06:42:00,71.6,70.4,28.94,NNW,329,6.0,9.0,96,0.00,,,0.00,WUHU216DAVISVP2,2013-06-27 10:42:00,
2013-06-27 06:43:00,71.6,70.4,28.94,NW,308,6.0,9.0,96,0.00,,,0.00,WUHU216DAVISVP2,2013-06-27 10:43:00,
2013-06-27 06:45:00,71.6,70.4,28.94,WNW,293,3.0,9.0,96,0.00,,,0.00,WUHU216DAVISVP2,2013-06-27 10:45:00,
2013-06-27 06:46:00,71.6,70.4,28.94,WNW,294,6.0,9.0,96,0.00,,,0.00,WUHU216DAVISVP2,2013-06-27 10:46:00,
2013-06-27 06:47:00,71.6,70.4,28.94,WNW,293,5.0,9.0,96,0.00,,,0.00,WUHU216DAVISVP2,2013-06-27 10:47:00,
2013-06-27 06:48:00,71.6,70.4,28.94,WNW,294,3.0,9.0,96,0.00,,,0.00,WUHU216DAVISVP2,2013-06-27 10:48:00,
2013-06-27 06:50:00,71.6,70.7,28.94,WNW,294,5.0,9.0,97,0.00,,,0.00,WUHU216DAVISVP2,2013-06-27 10:50:00,
2013-06-27 06:51:00,71.6,70.7,28.94,WNW,294,3.0,9.0,97,0.00,,,0.00,WUHU216DAVISVP2,2013-06-27 10:51:00,
2013-06-27 06:52:00,71.6,70.7,28.94,WNW,294,2.0,9.0,97,0.00,,,0.00,WUHU216DAVISVP2,2013-06-27 10:52:00,
2013-06-27 06:53:00,71.6,70.7,28.94,WNW,294,0.0,8.0,97,0.00,,,0.00,WUHU216DAVISVP2,2013-06-27 10:53:00,
2013-06-27 06:56:00,71.7,70.8,28.94,WNW,293,4.0,7.0,97,0.00,,,0.00,WUHU216DAVISVP2,2013-06-27 10:56:00,
2013-06-27 06:57:00,71.7,70.8,28.94,WNW,294,1.0,7.0,97,0.00,,,0.00,WUHU216DAVISVP2,2013-06-27 10:57:00,
2013-06-27 06:58:00,71.7,70.8,28.94,WNW,294,4.0,7.0,97,0.00,,,0.00,WUHU216DAVISVP2,2013-06-27 10:58:00,
2013-06-27 07:01:00,71.7,70.8,28.94,WNW,294,4.0,7.0,97,0.00,,,0.00,WUHU216DAVISVP2,2013-06-27 11:01:00,
2013-06-27 07:02:00,71.7,70.8,28.94,WNW,294,6.0,7.0,97,0.00,,,0.00,WUHU216DAVISVP2,2013-06-27 11:02:00,
2013-06-27 07:03:00,71.7,70.8,28.94,NW,318,5.0,7.0,97,0.00,,,0.00,WUHU216DAVISVP2,2013-06-27 11:03:00,
2013-06-27 07:04:00,71.6,70.7,28.94,NW,318,6.0,7.0,97,0.00,,,0.00,WUHU216DAVISVP2,2013-06-27 11:04:00,
2013-06-27 07:07:00,71.6,70.4,28.94,NNW,330,5.0,8.0,96,0.00,,,0.00,WUHU216DAVISVP2,2013-06-27 11:07:00,
2013-06-27 07:08:00,71.6,70.7,28.94,NNW,330,5.0,8.0,97,0.00,,,0.00,WUHU216DAVISVP2,2013-06-27 11:08:00,
2013-06-27 07:09:00,71.6,70.7,28.94,NNW,337,5.0,8.0,97,0.00,,,0.00,WUHU216DAVISVP2,2013-06-27 11:09:00,
2013-06-27 07:12:00,71.6,70.4,28.94,WNW,302,4.0,8.0,96,0.00,,,0.00,WUHU216DAVISVP2,2013-06-27 11:12:00,
2013-06-27 07:13:00,71.6,70.4,28.94,NW,312,5.0,8.0,96,0.00,,,0.00,WUHU216DAVISVP2,2013-06-27 11:13:00,
2013-06-27 07:14:00,71.6,70.4,28.94,NW,312,3.0,8.0,96,0.00,,,0.00,WUHU216DAVISVP2,2013-06-27 11:14:00,
2013-06-27 07:17:00,71.6,70.4,28.95,NNW,343,5.0,8.0,96,0.00,,,0.00,WUHU216DAVISVP2,2013-06-27 11:17:00,
2013-06-27 07:18:00,71.6,70.4,28.95,NNW,336,2.0,8.0,96,0.00,,,0.00,WUHU216DAVISVP2,2013-06-27 11:18:00,
2013-06-27 07:19:00,71.6,70.4,28.95,NNW,336,3.0,8.0,96,0.00,,,0.00,WUHU216DAVISVP2,2013-06-27 11:19:00,
2013-06-27 07:22:00,71.6,70.4,28.95,NNW,343,4.0,8.0,96,0.00,,,0.00,WUHU216DAVISVP2,2013-06-27 11:22:00,
2013-06-27 07:23:00,71.6,70.7,28.95,NW,324,4.0,8.0,97,0.00,,,0.00,WUHU216DAVISVP2,2013-06-27 11:23:00,
2013-06-27 07:24:00,71.7,70.8,28.95,NNW,337,2.0,7.0,97,0.00,,,0.00,WUHU216DAVISVP2,2013-06-27 11:24:00,
2013-06-27 07:27:00,71.7,70.5,28.95,NNW,337,4.0,7.0,96,0.00,,,0.00,WUHU216DAVISVP2,2013-06-27 11:27:00,
2013-06-27 07:28:00,71.7,70.5,28.95,NNW,337,3.0,7.0,96,0.00,,,0.00,WUHU216DAVISVP2,2013-06-27 11:28:00,
2013-06-27 07:29:00,71.7,70.5,28.95,NNE,18,5.0,6.0,96,0.00,,,0.00,WUHU216DAVISVP2,2013-06-27 11:29:00,
2013-06-27 07:32:00,71.7,70.5,28.95,North,359,5.0,7.0,96,0.00,,,0.00,WUHU216DAVISVP2,2013-06-27 11:32:00,
2013-06-27 07:33:00,71.7,70.5,28.94,North,359,4.0,7.0,96,0.00,,,0.00,WUHU216DAVISVP2,2013-06-27 11:33:00,
2013-06-27 07:35:00,71.7,70.5,28.94,North,359,5.0,7.0,96,0.00,,,0.00,WUHU216DAVISVP2,2013-06-27 11:35:00,
2013-06-27 07:37:00,71.7,70.5,28.95,North,359,5.0,7.0,96,0.00,,,0.00,WUHU216DAVISVP2,2013-06-27 11:37:00,
2013-06-27 07:38:00,71.7,70.5,28.95,North,359,7.0,8.0,96,0.00,,,0.00,WUHU216DAVISVP2,2013-06-27 11:38:00,
2013-06-27 07:39:00,71.7,70.5,28.95,North,359,6.0,8.0,96,0.00,,,0.00,WUHU216DAVISVP2,2013-06-27 11:39:00,
2013-06-27 07:40:00,71.6,70.4,28.95,North,349,4.0,8.0,96,0.00,,,0.00,WUHU216DAVISVP2,2013-06-27 11:40:00,
2013-06-27 07:42:00,71.7,70.5,28.95,NNW,347,2.0,8.0,96,0.00,,,0.00,WUHU216DAVISVP2,2013-06-27 11:42:00,
2013-06-27 07:43:00,71.7,70.5,28.95,NNW,347,4.0,8.0,96,0.00,,,0.00,WUHU216DAVISVP2,2013-06-27 11:43:00,
2013-06-27 07:44:00,71.8,70.6,28.95,NNW,347,4.0,8.0,96,0.00,,,0.00,WUHU216DAVISVP2,2013-06-27 11:44:00,
2013-06-27 07:45:00,71.8,70.6,28.95,NNW,347,4.0,8.0,96,0.00,,,0.00,WUHU216DAVISVP2,2013-06-27 11:45:00,
2013-06-27 07:47:00,71.8,70.6,28.95,NNW,332,6.0,8.0,96,0.00,,,0.00,WUHU216DAVISVP2,2013-06-27 11:47:00,
2013-06-27 07:48:00,71.8,70.6,28.95,NNW,334,4.0,8.0,96,0.00,,,0.00,WUHU216DAVISVP2,2013-06-27 11:48:00,
2013-06-27 07:49:00,71.7,70.5,28.95,NNW,346,3.0,8.0,96,0.00,,,0.00,WUHU216DAVISVP2,2013-06-27 11:49:00,
2013-06-27 07:51:00,71.7,70.5,28.95,NNW,346,4.0,8.0,96,0.00,,,0.00,WUHU216DAVISVP2,2013-06-27 11:51:00,
2013-06-27 07:53:00,71.7,70.5,28.95,NW,322,4.0,8.0,96,0.00,,,0.00,WUHU216DAVISVP2,2013-06-27 11:53:00,
2013-06-27 07:54:00,71.6,70.4,28.96,North,4,6.0,8.0,96,0.00,,,0.00,WUHU216DAVISVP2,2013-06-27 11:54:00,
2013-06-27 07:56:00,71.5,70.3,28.95,NNW,335,6.0,10.0,96,0.00,,,0.00,WUHU216DAVISVP2,2013-06-27 11:56:00,
2013-06-27 07:58:00,71.5,70.3,28.95,North,354,4.0,10.0,96,0.00,,,0.00,WUHU216DAVISVP2,2013-06-27 11:58:00,
2013-06-27 07:59:00,71.5,70.3,28.95,NNW,335,7.0,10.0,96,0.00,,,0.00,WUHU216DAVISVP2,2013-06-27 11:59:00,
2013-06-27 08:01:00,71.4,69.9,28.95,NNW,329,4.0,10.0,95,0.00,,,0.00,WUHU216DAVISVP2,2013-06-27 12:01:00,
2013-06-27 08:03:00,71.4,69.9,28.95,NNW,339,8.0,10.0,95,0.00,,,0.00,WUHU216DAVISVP2,2013-06-27 12:03:00,
2013-06-27 08:04:00,71.4,69.9,28.95,North,4,6.0,10.0,95,0.00,,,0.00,WUHU216DAVISVP2,2013-06-27 12:04:00,
2013-06-27 08:06:00,71.3,69.8,28.95,NNW,332,5.0,10.0,95,0.00,,,0.00,WUHU216DAVISVP2,2013-06-27 12:06:00,
2013-06-27 08:08:00,71.3,69.8,28.95,NNW,335,6.0,10.0,95,0.00,,,0.00,WUHU216DAVISVP2,2013-06-27 12:08:00,
2013-06-27 08:10:00,71.2,69.7,28.95,NNW,347,4.0,10.0,95,0.00,,,0.00,WUHU216DAVISVP2,2013-06-27 12:10:00,
2013-06-27 08:11:00,71.2,69.7,28.95,North,354,6.0,10.0,95,0.00,,,0.00,WUHU216DAVISVP2,2013-06-27 12:11:00,
2013-06-27 08:13:00,71.2,69.4,28.95,NNW,343,4.0,10.0,94,0.00,,,0.00,WUHU216DAVISVP2,2013-06-27 12:13:00,
2013-06-27 08:14:00,71.2,69.4,28.95,North,4,6.0,9.0,94,0.00,,,0.00,WUHU216DAVISVP2,2013-06-27 12:14:00,
2013-06-27 08:15:00,71.2,69.4,28.95,North,8,5.0,9.0,94,0.00,,,0.00,WUHU216DAVISVP2,2013-06-27 12:15:00,
2013-06-27 08:17:00,71.2,69.4,28.96,North,359,4.0,9.0,94,0.00,,,0.00,WUHU216DAVISVP2,2013-06-27 12:17:00,
2013-06-27 08:18:00,71.2,69.4,28.96,NNW,345,5.0,9.0,94,0.00,,,0.00,WUHU216DAVISVP2,2013-06-27 12:18:00,
2013-06-27 08:19:00,71.2,69.4,28.96,NNW,333,7.0,9.0,94,0.00,,,0.00,WUHU216DAVISVP2,2013-06-27 12:19:00,
2013-06-27 08:20:00,71.1,69.3,28.96,NNW,328,5.0,9.0,94,0.00,,,0.00,WUHU216DAVISVP2,2013-06-27 12:20:00,
2013-06-27 08:22:00,71.1,69.3,28.96,North,354,7.0,8.0,94,0.00,,,0.00,WUHU216DAVISVP2,2013-06-27 12:22:00,
2013-06-27 08:23:00,71.1,69.3,28.96,NW,317,4.0,8.0,94,0.00,,,0.00,WUHU216DAVISVP2,2013-06-27 12:23:00,
2013-06-27 08:24:00,71.0,69.2,28.96,NNW,347,4.0,8.0,94,0.00,,,0.00,WUHU216DAVISVP2,2013-06-27 12:24:00,
2013-06-27 08:25:00,71.0,69.2,28.96,NNW,347,2.0,8.0,94,0.00,,,0.00,WUHU216DAVISVP2,2013-06-27 12:25:00,
2013-06-27 08:27:00,71.0,69.2,28.95,NW,326,5.0,8.0,94,0.00,,,0.00,WUHU216DAVISVP2,2013-06-27 12:27:00,
2013-06-27 08:28:00,71.0,68.9,28.95,North,350,5.0,8.0,93,0.00,,,0.00,WUHU216DAVISVP2,2013-06-27 12:28:00,
2013-06-27 08:29:00,71.0,68.9,28.95,North,350,5.0,8.0,93,0.00,,,0.00,WUHU216DAVISVP2,2013-06-27 12:29:00,
2013-06-27 08:30:00,71.0,68.9,28.95,NNW,334,5.0,8.0,93,0.00,,,0.00,WUHU216DAVISVP2,2013-06-27 12:30:00,
2013-06-27 08:32:00,70.9,68.8,28.95,NNW,341,7.0,8.0,93,0.00,,,0.00,WUHU216DAVISVP2,2013-06-27 12:32:00,
2013-06-27 08:33:00,70.9,68.8,28.95,NNW,347,6.0,8.0,93,0.00,,,0.00,WUHU216DAVISVP2,2013-06-27 12:33:00,
2013-06-27 08:34:00,70.9,68.8,28.95,North,354,8.0,9.0,93,0.00,,,0.00,WUHU216DAVISVP2,2013-06-27 12:34:00,
2013-06-27 08:36:00,70.9,68.8,28.95,North,10,6.0,9.0,93,0.00,,,0.00,WUHU216DAVISVP2,2013-06-27 12:36:00,
2013-06-27 08:37:00,71.0,68.9,28.95,North,359,7.0,9.0,93,0.00,,,0.00,WUHU216DAVISVP2,2013-06-27 12:37:00,
2013-06-27 08:38:00,70.9,68.8,28.95,North,359,8.0,9.0,93,0.00,,,0.00,WUHU216DAVISVP2,2013-06-27 12:38:00,
2013-06-27 08:39:00,71.0,68.9,28.96,North,359,5.0,9.0,93,0.00,,,0.00,WUHU216DAVISVP2,2013-06-27 12:39:00,
2013-06-27 08:40:00,71.0,68.9,28.95,North,359,5.0,9.0,93,0.00,,,0.00,WUHU216DAVISVP2,2013-06-27 12:40:00,
2013-06-27 08:41:00,71.0,68.5,28.95,North,359,4.0,9.0,92,0.00,,,0.00,WUHU216DAVISVP2,2013-06-27 12:41:00,
2013-06-27 08:43:00,71.1,68.9,28.95,North,359,5.0,9.0,93,0.00,,,0.00,WUHU216DAVISVP2,2013-06-27 12:43:00,
2013-06-27 08:44:00,71.2,68.7,28.96,NNE,14,5.0,9.0,92,0.00,,,0.00,WUHU216DAVISVP2,2013-06-27 12:44:00,
2013-06-27 08:45:00,71.2,69.0,28.96,North,8,6.0,9.0,93,0.00,,,0.00,WUHU216DAVISVP2,2013-06-27 12:45:00,
2013-06-27 08:46:00,71.3,68.8,28.96,North,4,7.0,9.0,92,0.00,,,0.00,WUHU216DAVISVP2,2013-06-27 12:46:00,
2013-06-27 08:48:00,71.3,68.8,28.95,North,349,4.0,9.0,92,0.00,,,0.00,WUHU216DAVISVP2,2013-06-27 12:48:00,
2013-06-27 08:49:00,71.4,68.9,28.95,NNW,334,6.0,9.0,92,0.00,,,0.00,WUHU216DAVISVP2,2013-06-27 12:49:00,
2013-06-27 08:50:00,71.5,69.0,28.95,North,354,8.0,9.0,92,0.00,,,0.00,WUHU216DAVISVP2,2013-06-27 12:50:00,
2013-06-27 08:51:00,71.6,69.2,28.95,NNW,337,7.0,9.0,92,0.00,,,0.00,WUHU216DAVISVP2,2013-06-27 12:51:00,
2013-06-27 08:53:00,71.5,68.7,28.95,NNW,330,6.0,9.0,91,0.00,,,0.00,WUHU216DAVISVP2,2013-06-27 12:53:00,
2013-06-27 08:54:00,71.4,68.6,28.95,NNW,347,7.0,9.0,91,0.00,,,0.00,WUHU216DAVISVP2,2013-06-27 12:54:00,
2013-06-27 08:55:00,71.4,68.6,28.95,North,8,9.0,9.0,91,0.00,,,0.00,WUHU216DAVISVP2,2013-06-27 12:55:00,
2013-06-27 08:56:00,71.4,68.6,28.95,North,10,8.0,9.0,91,0.00,,,0.00,WUHU216DAVISVP2,2013-06-27 12:56:00,
2013-06-27 08:58:00,71.4,68.6,28.95,North,4,6.0,10.0,91,0.00,,,0.00,WUHU216DAVISVP2,2013-06-27 12:58:00,
2013-06-27 08:59:00,71.4,68.6,28.95,NNE,27,5.0,10.0,91,0.00,,,0.00,WUHU216DAVISVP2,2013-06-27 12:59:00,
2013-06-27 09:00:00,71.4,68.6,28.95,NNE,17,7.0,10.0,91,0.00,,,0.00,WUHU216DAVISVP2,2013-06-27 13:00:00,
2013-06-27 09:01:00,71.5,68.7,28.95,NNW,338,7.0,10.0,91,0.00,,,0.00,WUHU216DAVISVP2,2013-06-27 13:01:00,
2013-06-27 09:04:00,71.6,68.5,28.95,NNW,339,7.0,10.0,90,0.00,,,0.00,WUHU216DAVISVP2,2013-06-27 13:04:00,
2013-06-27 09:05:00,71.7,68.9,28.95,North,359,6.0,10.0,91,0.00,,,0.00,WUHU216DAVISVP2,2013-06-27 13:05:00,
2013-06-27 09:07:00,71.8,69.0,28.95,NNW,347,7.0,10.0,91,0.00,,,0.00,WUHU216DAVISVP2,2013-06-27 13:07:00,
2013-06-27 09:09:00,71.9,69.1,28.95,NW,320,4.0,10.0,91,0.00,,,0.00,WUHU216DAVISVP2,2013-06-27 13:09:00,
2013-06-27 09:10:00,72.0,69.2,28.95,NW,307,6.0,10.0,91,0.00,,,0.00,WUHU216DAVISVP2,2013-06-27 13:10:00,
2013-06-27 09:12:00,72.0,69.2,28.95,NW,317,4.0,10.0,91,0.00,,,0.00,WUHU216DAVISVP2,2013-06-27 13:12:00,
2013-06-27 09:14:00,72.0,69.2,28.95,NW,321,5.0,10.0,91,0.00,,,0.00,WUHU216DAVISVP2,2013-06-27 13:14:00,
2013-06-27 09:15:00,71.9,68.8,28.95,NW,326,6.0,10.0,90,0.00,,,0.00,WUHU216DAVISVP2,2013-06-27 13:15:00,
2013-06-27 09:16:00,71.9,68.8,28.95,NW,314,5.0,9.0,90,0.00,,,0.00,WUHU216DAVISVP2,2013-06-27 13:16:00,
2013-06-27 09:17:00,71.9,68.8,28.95,NW,326,5.0,9.0,90,0.00,,,0.00,WUHU216DAVISVP2,2013-06-27 13:17:00,
2013-06-27 09:19:00,71.9,68.8,28.95,NNW,329,6.0,9.0,90,0.00,,,0.00,WUHU216DAVISVP2,2013-06-27 13:19:00,
2013-06-27 09:20:00,71.9,68.8,28.96,NW,324,5.0,9.0,90,0.00,,,0.00,WUHU216DAVISVP2,2013-06-27 13:20:00,
2013-06-27 09:21:00,71.9,68.8,28.95,NNW,341,5.0,9.0,90,0.00,,,0.00,WUHU216DAVISVP2,2013-06-27 13:21:00,
2013-06-27 09:22:00,71.9,68.8,28.96,NNW,341,4.0,9.0,90,0.00,,,0.00,WUHU216DAVISVP2,2013-06-27 13:22:00,
2013-06-27 09:24:00,72.1,69.0,28.96,NW,322,1.0,9.0,90,0.00,,,0.00,WUHU216DAVISVP2,2013-06-27 13:24:00,
2013-06-27 09:25:00,72.2,69.4,28.96,NW,322,0.0,9.0,91,0.00,,,0.00,WUHU216DAVISVP2,2013-06-27 13:25:00,
2013-06-27 09:26:00,72.3,69.2,28.96,NW,305,8.0,9.0,90,0.00,,,0.00,WUHU216DAVISVP2,2013-06-27 13:26:00,
2013-06-27 09:27:00,72.4,69.3,28.96,NW,305,7.0,9.0,90,0.00,,,0.00,WUHU216DAVISVP2,2013-06-27 13:27:00,
2013-06-27 09:29:00,72.4,69.3,28.96,NNW,339,6.0,9.0,90,0.00,,,0.00,WUHU216DAVISVP2,2013-06-27 13:29:00,
2013-06-27 09:30:00,72.4,69.3,28.96,NNW,334,5.0,9.0,90,0.00,,,0.00,WUHU216DAVISVP2,2013-06-27 13:30:00,
2013-06-27 09:31:00,72.4,69.3,28.96,North,354,5.0,9.0,90,0.00,,,0.00,WUHU216DAVISVP2,2013-06-27 13:31:00,
2013-06-27 09:32:00,72.4,69.3,28.96,NNW,348,7.0,9.0,90,0.00,,,0.00,WUHU216DAVISVP2,2013-06-27 13:32:00,
2013-06-27 09:34:00,72.5,69.1,28.96,NW,320,5.0,9.0,89,0.00,,,0.00,WUHU216DAVISVP2,2013-06-27 13:34:00,
2013-06-27 09:35:00,72.5,69.1,28.96,NW,314,5.0,9.0,89,0.00,,,0.00,WUHU216DAVISVP2,2013-06-27 13:35:00,
2013-06-27 09:36:00,72.6,69.2,28.96,NW,314,2.0,9.0,89,0.00,,,0.00,WUHU216DAVISVP2,2013-06-27 13:36:00,
2013-06-27 09:37:00,72.6,69.2,28.96,WNW,296,7.0,9.0,89,0.00,,,0.00,WUHU216DAVISVP2,2013-06-27 13:37:00,
2013-06-27 09:40:00,72.8,69.4,28.96,NW,322,7.0,9.0,89,0.00,,,0.00,WUHU216DAVISVP2,2013-06-27 13:40:00,
2013-06-27 09:41:00,72.8,69.0,28.96,NW,305,6.0,9.0,88,0.00,,,0.00,WUHU216DAVISVP2,2013-06-27 13:41:00,
2013-06-27 09:42:00,72.8,69.0,28.96,NNW,330,5.0,9.0,88,0.00,,,0.00,WUHU216DAVISVP2,2013-06-27 13:42:00,
2013-06-27 09:45:00,73.0,69.2,28.95,NNW,339,7.0,9.0,88,0.00,,,0.00,WUHU216DAVISVP2,2013-06-27 13:45:00,
2013-06-27 09:46:00,73.0,68.9,28.96,North,354,7.0,9.0,87,0.00,,,0.00,WUHU216DAVISVP2,2013-06-27 13:46:00,
2013-06-27 09:47:00,73.1,69.0,28.95,NNE,18,7.0,9.0,87,0.00,,,0.00,WUHU216DAVISVP2,2013-06-27 13:47:00,
2013-06-27 09:50:00,73.3,69.2,28.95,NW,323,6.0,9.0,87,0.00,,,0.00,WUHU216DAVISVP2,2013-06-27 13:50:00,
2013-06-27 09:51:00,73.2,69.1,28.95,NW,323,5.0,9.0,87,0.00,,,0.00,WUHU216DAVISVP2,2013-06-27 13:51:00,
2013-06-27 09:52:00,73.3,69.2,28.95,NNW,337,5.0,9.0,87,0.00,,,0.00,WUHU216DAVISVP2,2013-06-27 13:52:00,
2013-06-27 09:55:00,73.4,69.6,28.95,NNW,341,7.0,9.0,88,0.00,,,0.00,WUHU216DAVISVP2,2013-06-27 13:55:00,
2013-06-27 09:56:00,73.4,69.6,28.95,NW,319,8.0,9.0,88,0.00,,,0.00,WUHU216DAVISVP2,2013-06-27 13:56:00,
2013-06-27 09:57:00,73.5,69.7,28.95,North,354,5.0,9.0,88,0.00,,,0.00,WUHU216DAVISVP2,2013-06-27 13:57:00,
2013-06-27 10:00:00,73.7,69.6,28.95,NW,326,6.0,9.0,87,0.00,,,0.00,WUHU216DAVISVP2,2013-06-27 14:00:00,
2013-06-27 10:02:00,73.7,69.3,28.95,NW,322,5.0,9.0,86,0.00,,,0.00,WUHU216DAVISVP2,2013-06-27 14:02:00,
2013-06-27 10:06:00,73.8,69.4,28.95,North,354,5.0,9.0,86,0.00,,,0.00,WUHU216DAVISVP2,2013-06-27 14:06:00,
2013-06-27 10:07:00,73.8,69.4,28.95,NNW,337,4.0,9.0,86,0.00,,,0.00,WUHU216DAVISVP2,2013-06-27 14:07:00,
2013-06-27 10:08:00,73.9,69.5,28.95,NW,313,5.0,9.0,86,0.00,,,0.00,WUHU216DAVISVP2,2013-06-27 14:08:00,
2013-06-27 10:11:00,74.0,69.9,28.95,NW,314,5.0,9.0,87,0.00,,,0.00,WUHU216DAVISVP2,2013-06-27 14:11:00,
2013-06-27 10:12:00,74.1,70.0,28.95,NW,317,5.0,9.0,87,0.00,,,0.00,WUHU216DAVISVP2,2013-06-27 14:12:00,
2013-06-27 10:13:00,74.1,70.0,28.95,NW,324,4.0,9.0,87,0.00,,,0.00,WUHU216DAVISVP2,2013-06-27 14:13:00,
2013-06-27 10:16:00,74.2,69.8,28.95,NNW,327,7.0,9.0,86,0.00,,,0.00,WUHU216DAVISVP2,2013-06-27 14:16:00,
2013-06-27 10:17:00,74.2,69.8,28.95,NNW,337,6.0,9.0,86,0.00,,,0.00,WUHU216DAVISVP2,2013-06-27 14:17:00,
2013-06-27 10:18:00,74.2,69.4,28.95,NNW,332,5.0,9.0,85,0.00,,,0.00,WUHU216DAVISVP2,2013-06-27 14:18:00,
2013-06-27 10:21:00,74.2,69.8,28.95,WNW,295,12.0,12.0,86,0.00,,,0.00,WUHU216DAVISVP2,2013-06-27 14:21:00,
2013-06-27 10:22:00,74.2,69.4,28.95,NW,325,5.0,12.0,85,0.00,,,0.00,WUHU216DAVISVP2,2013-06-27 14:22:00,
2013-06-27 10:23:00,74.2,69.4,28.95,NW,312,5.0,12.0,85,0.00,,,0.00,WUHU216DAVISVP2,2013-06-27 14:23:00,
2013-06-27 10:26:00,74.4,69.6,28.95,NW,306,5.0,12.0,85,0.00,,,0.00,WUHU216DAVISVP2,2013-06-27 14:26:00,
2013-06-27 10:28:00,74.5,69.7,28.95,NW,313,4.0,12.0,85,0.00,,,0.00,WUHU216DAVISVP2,2013-06-27 14:28:00,
2013-06-27 10:32:00,74.7,69.9,28.95,NNW,335,5.0,12.0,85,0.00,,,0.00,WUHU216DAVISVP2,2013-06-27 14:32:00,
2013-06-27 10:33:00,74.9,70.1,28.95,NW,305,5.0,12.0,85,0.00,,,0.00,WUHU216DAVISVP2,2013-06-27 14:33:00,
2013-06-27 10:37:00,75.1,69.6,28.95,NW,312,5.0,12.0,83,0.00,,,0.00,WUHU216DAVISVP2,2013-06-27 14:37:00,
2013-06-27 10:38:00,75.2,69.7,28.95,NNW,340,8.0,12.0,83,0.00,,,0.00,WUHU216DAVISVP2,2013-06-27 14:38:00,
2013-06-27 10:39:00,75.2,69.3,28.95,North,354,8.0,12.0,82,0.00,,,0.00,WUHU216DAVISVP2,2013-06-27 14:39:00,
2013-06-27 10:42:00,75.4,69.6,28.95,WNW,284,5.0,11.0,82,0.00,,,0.00,WUHU216DAVISVP2,2013-06-27 14:42:00,
2013-06-27 10:43:00,75.4,69.6,28.95,NW,308,7.0,11.0,82,0.00,,,0.00,WUHU216DAVISVP2,2013-06-27 14:43:00,
2013-06-27 10:44:00,75.4,69.6,28.95,NW,323,7.0,11.0,82,0.00,,,0.00,WUHU216DAVISVP2,2013-06-27 14:44:00,
2013-06-27 10:47:00,75.3,69.5,28.95,NW,308,8.0,11.0,82,0.00,,,0.00,WUHU216DAVISVP2,2013-06-27 14:47:00,
2013-06-27 10:48:00,75.2,69.4,28.96,WNW,299,8.0,11.0,82,0.00,,,0.00,WUHU216DAVISVP2,2013-06-27 14:48:00,
2013-06-27 10:49:00,75.3,69.5,28.96,NW,307,8.0,11.0,82,0.00,,,0.00,WUHU216DAVISVP2,2013-06-27 14:49:00,
2013-06-27 10:52:00,75.4,69.9,28.96,NW,321,4.0,11.0,83,0.00,,,0.00,WUHU216DAVISVP2,2013-06-27 14:52:00,
2013-06-27 10:53:00,75.5,70.4,28.96,NW,324,7.0,11.0,84,0.00,,,0.00,WUHU216DAVISVP2,2013-06-27 14:53:00,
2013-06-27 10:54:00,75.6,70.1,28.96,WNW,299,7.0,11.0,83,0.00,,,0.00,WUHU216DAVISVP2,2013-06-27 14:54:00,
2013-06-27 10:55:00,75.6,70.1,28.96,WNW,287,6.0,11.0,83,0.00,,,0.00,WUHU216DAVISVP2,2013-06-27 14:55:00,
2013-06-27 10:57:00,75.6,69.7,28.96,NW,306,10.0,11.0,82,0.00,,,0.00,WUHU216DAVISVP2,2013-06-27 14:57:00,
2013-06-27 10:58:00,75.5,69.6,28.96,NW,310,6.0,11.0,82,0.00,,,0.00,WUHU216DAVISVP2,2013-06-27 14:58:00,
2013-06-27 10:59:00,75.5,69.6,28.96,NW,321,6.0,11.0,82,0.00,,,0.00,WUHU216DAVISVP2,2013-06-27 14:59:00,
2013-06-27 11:00:00,75.5,69.6,28.95,WNW,301,8.0,11.0,82,0.00,,,0.00,WUHU216DAVISVP2,2013-06-27 15:00:00,
2013-06-27 11:02:00,75.5,69.6,28.95,NW,307,10.0,11.0,82,0.00,,,0.00,WUHU216DAVISVP2,2013-06-27 15:02:00,
2013-06-27 11:03:00,75.5,69.6,28.96,NW,323,8.0,11.0,82,0.00,,,0.00,WUHU216DAVISVP2,2013-06-27 15:03:00,
2013-06-27 11:04:00,75.5,69.3,28.96,NNW,328,8.0,11.0,81,0.00,,,0.00,WUHU216DAVISVP2,2013-06-27 15:04:00,
2013-06-27 11:05:00,75.6,69.7,28.95,NW,314,7.0,11.0,82,0.00,,,0.00,WUHU216DAVISVP2,2013-06-27 15:05:00,
2013-06-27 11:07:00,75.9,69.6,28.95,WNW,297,4.0,13.0,81,0.00,,,0.00,WUHU216DAVISVP2,2013-06-27 15:07:00,
2013-06-27 11:09:00,76.0,69.7,28.96,WNW,301,7.0,13.0,81,0.00,,,0.00,WUHU216DAVISVP2,2013-06-27 15:09:00,
2013-06-27 11:10:00,76.2,70.0,28.96,NW,317,7.0,13.0,81,0.00,,,0.00,WUHU216DAVISVP2,2013-06-27 15:10:00,
2013-06-27 11:13:00,76.2,69.3,28.96,WNW,299,7.0,13.0,79,0.00,,,0.00,WUHU216DAVISVP2,2013-06-27 15:13:00,
2013-06-27 11:14:00,76.3,69.4,28.96,NW,318,4.0,13.0,79,0.00,,,0.00,WUHU216DAVISVP2,2013-06-27 15:14:00,
2013-06-27 11:15:00,76.4,69.5,28.96,NW,316,10.0,13.0,79,0.00,,,0.00,WUHU216DAVISVP2,2013-06-27 15:15:00,
2013-06-27 11:18:00,76.4,69.5,28.96,NW,305,5.0,13.0,79,0.00,,,0.00,WUHU216DAVISVP2,2013-06-27 15:18:00,
2013-06-27 11:19:00,76.5,69.6,28.96,NW,316,7.0,13.0,79,0.00,,,0.00,WUHU216DAVISVP2,2013-06-27 15:19:00,
2013-06-27 11:20:00,76.5,69.6,28.96,WNW,295,8.0,13.0,79,0.00,,,0.00,WUHU216DAVISVP2,2013-06-27 15:20:00,
2013-06-27 11:23:00,76.8,70.6,28.96,NW,305,5.0,13.0,81,0.00,,,0.00,WUHU216DAVISVP2,2013-06-27 15:23:00,
2013-06-27 11:24:00,76.9,70.7,28.96,WNW,285,6.0,13.0,81,0.00,,,0.00,WUHU216DAVISVP2,2013-06-27 15:24:00,
2013-06-27 11:25:00,76.9,70.0,28.97,WNW,297,7.0,13.0,79,0.00,,,0.00,WUHU216DAVISVP2,2013-06-27 15:25:00,
2013-06-27 11:28:00,76.9,69.5,28.97,NW,316,9.0,12.0,78,0.00,,,0.00,WUHU216DAVISVP2,2013-06-27 15:28:00,
2013-06-27 11:29:00,76.9,69.9,28.97,NW,320,10.0,12.0,79,0.00,,,0.00,WUHU216DAVISVP2,2013-06-27 15:29:00,
2013-06-27 11:30:00,76.9,69.9,28.97,NW,318,9.0,12.0,79,0.00,,,0.00,WUHU216DAVISVP2,2013-06-27 15:30:00,
2013-06-27 11:31:00,76.9,69.9,28.97,NW,318,6.0,12.0,79,0.00,,,0.00,WUHU216DAVISVP2,2013-06-27 15:31:00,
2013-06-27 11:33:00,77.1,70.2,28.97,NW,318,8.0,12.0,79,0.00,,,0.00,WUHU216DAVISVP2,2013-06-27 15:33:00,
2013-06-27 11:34:00,77.1,69.8,28.97,WNW,296,9.0,11.0,78,0.00,,,0.00,WUHU216DAVISVP2,2013-06-27 15:34:00,
2013-06-27 11:35:00,77.0,69.7,28.97,NNW,337,6.0,11.0,78,0.00,,,0.00,WUHU216DAVISVP2,2013-06-27 15:35:00,
2013-06-27 11:36:00,77.0,69.7,28.97,NW,326,6.0,11.0,78,0.00,,,0.00,WUHU216DAVISVP2,2013-06-27 15:36:00,
2013-06-27 11:38:00,76.9,69.6,28.97,NW,308,8.0,15.0,78,0.00,,,0.00,WUHU216DAVISVP2,2013-06-27 15:38:00,
2013-06-27 11:39:00,76.9,69.6,28.97,WNW,299,10.0,15.0,78,0.00,,,0.00,WUHU216DAVISVP2,2013-06-27 15:39:00,
2013-06-27 11:40:00,76.8,69.5,28.97,NNW,335,8.0,15.0,78,0.00,,,0.00,WUHU216DAVISVP2,2013-06-27 15:40:00,
2013-06-27 11:41:00,76.8,69.9,28.98,NW,326,12.0,15.0,79,0.00,,,0.00,WUHU216DAVISVP2,2013-06-27 15:41:00,
2013-06-27 11:43:00,76.7,69.5,28.97,North,354,10.0,15.0,78,0.00,,,0.00,WUHU216DAVISVP2,2013-06-27 15:43:00,
2013-06-27 11:44:00,76.8,69.9,28.97,NNW,328,5.0,15.0,79,0.00,,,0.00,WUHU216DAVISVP2,2013-06-27 15:44:00,
2013-06-27 11:45:00,76.9,70.0,28.97,NW,304,8.0,15.0,79,0.00,,,0.00,WUHU216DAVISVP2,2013-06-27 15:45:00,
2013-06-27 11:46:00,76.9,70.0,28.97,NW,316,9.0,15.0,79,0.00,,,0.00,WUHU216DAVISVP2,2013-06-27 15:46:00,
2013-06-27 11:49:00,77.2,70.3,28.97,NW,310,7.0,15.0,79,0.00,,,0.00,WUHU216DAVISVP2,2013-06-27 15:49:00,
2013-06-27 11:50:00,77.4,70.4,28.97,NW,326,6.0,15.0,79,0.00,,,0.00,WUHU216DAVISVP2,2013-06-27 15:50:00,
2013-06-27 11:51:00,77.6,70.9,28.97,NNW,341,8.0,15.0,80,0.00,,,0.00,WUHU216DAVISVP2,2013-06-27 15:51:00,
2013-06-27 11:52:00,77.5,70.1,28.97,North,350,9.0,15.0,78,0.00,,,0.00,WUHU216DAVISVP2,2013-06-27 15:52:00,
2013-06-27 11:54:00,77.5,70.1,28.97,NW,316,9.0,15.0,78,0.00,,,0.00,WUHU216DAVISVP2,2013-06-27 15:54:00,
2013-06-27 11:56:00,77.4,70.0,28.96,NNW,328,5.0,15.0,78,0.00,,,0.00,WUHU216DAVISVP2,2013-06-27 15:56:00,
2013-06-27 11:57:00,77.4,70.5,28.97,NNW,339,9.0,13.0,79,0.00,,,0.00,WUHU216DAVISVP2,2013-06-27 15:57:00,
2013-06-27 11:59:00,77.3,70.0,28.97,NNW,329,11.0,13.0,78,0.00,,,0.00,WUHU216DAVISVP2,2013-06-27 15:59:00,
2013-06-27 12:00:00,77.3,70.0,28.97,NNW,331,8.0,13.0,78,0.00,,,0.00,WUHU216DAVISVP2,2013-06-27 16:00:00,
2013-06-27 12:01:00,77.2,69.9,28.97,NW,320,6.0,13.0,78,0.00,,,0.00,WUHU216DAVISVP2,2013-06-27 16:01:00,
2013-06-27 12:02:00,77.2,69.9,28.96,NW,320,2.0,12.0,78,0.00,,,0.00,WUHU216DAVISVP2,2013-06-27 16:02:00,
2013-06-27 12:04:00,77.3,70.4,28.96,NW,314,6.0,12.0,79,0.00,,,0.00,WUHU216DAVISVP2,2013-06-27 16:04:00,
2013-06-27 12:05:00,77.2,70.3,28.96,North,359,8.0,12.0,79,0.00,,,0.00,WUHU216DAVISVP2,2013-06-27 16:05:00,
2013-06-27 12:06:00,77.2,69.9,28.96,NW,309,6.0,12.0,78,0.00,,,0.00,WUHU216DAVISVP2,2013-06-27 16:06:00,
2013-06-27 12:07:00,77.3,70.8,28.97,WNW,291,11.0,12.0,80,0.00,,,0.00,WUHU216DAVISVP2,2013-06-27 16:07:00,
2013-06-27 12:08:00,77.3,70.4,28.97,WNW,291,10.0,12.0,79,0.00,,,0.00,WUHU216DAVISVP2,2013-06-27 16:08:00,
2013-06-27 12:09:00,77.3,70.4,28.96,WNW,291,8.0,12.0,79,0.00,,,0.00,WUHU216DAVISVP2,2013-06-27 16:09:00,
2013-06-27 12:10:00,77.3,70.4,28.96,West,281,10.0,12.0,79,0.00,,,0.00,WUHU216DAVISVP2,2013-06-27 16:10:00,
2013-06-27 12:11:00,77.4,70.5,28.96,WNW,294,8.0,12.0,79,0.00,,,0.00,WUHU216DAVISVP2,2013-06-27 16:11:00,
2013-06-27 12:12:00,77.5,70.9,28.96,NW,310,7.0,12.0,80,0.00,,,0.00,WUHU216DAVISVP2,2013-06-27 16:12:00,
2013-06-27 12:13:00,77.6,70.7,28.96,WNW,299,7.0,12.0,79,0.00,,,0.00,WUHU216DAVISVP2,2013-06-27 16:13:00,
2013-06-27 12:15:00,77.7,70.8,28.96,WNW,297,5.0,12.0,79,0.00,,,0.00,WUHU216DAVISVP2,2013-06-27 16:15:00,
2013-06-27 12:16:00,77.7,70.4,28.96,NW,323,6.0,12.0,78,0.00,,,0.00,WUHU216DAVISVP2,2013-06-27 16:16:00,
2013-06-27 12:17:00,77.7,70.4,28.96,NNW,339,8.0,12.0,78,0.00,,,0.00,WUHU216DAVISVP2,2013-06-27 16:17:00,
2013-06-27 12:18:00,77.6,70.3,28.96,NNW,339,9.0,12.0,78,0.00,,,0.00,WUHU216DAVISVP2,2013-06-27 16:18:00,
2013-06-27 12:20:00,77.6,70.0,28.96,NW,306,8.0,12.0,77,0.00,,,0.00,WUHU216DAVISVP2,2013-06-27 16:20:00,
2013-06-27 12:21:00,77.5,70.2,28.96,NNW,334,6.0,12.0,78,0.00,,,0.00,WUHU216DAVISVP2,2013-06-27 16:21:00,
2013-06-27 12:22:00,77.5,70.2,28.96,NW,312,8.0,12.0,78,0.00,,,0.00,WUHU216DAVISVP2,2013-06-27 16:22:00,
2013-06-27 12:24:00,77.6,70.3,28.96,WNW,289,7.0,12.0,78,0.00,,,0.00,WUHU216DAVISVP2,2013-06-27 16:24:00,
2013-06-27 12:25:00,77.7,70.4,28.96,NW,326,6.0,12.0,78,0.00,,,0.00,WUHU216DAVISVP2,2013-06-27 16:25:00,
2013-06-27 12:26:00,77.7,70.4,28.96,NW,305,11.0,12.0,78,0.00,,,0.00,WUHU216DAVISVP2,2013-06-27 16:26:00,
2013-06-27 12:27:00,77.6,70.3,28.96,WNW,289,9.0,12.0,78,0.00,,,0.00,WUHU216DAVISVP2,2013-06-27 16:27:00,
2013-06-27 12:29:00,77.6,70.3,28.97,WNW,293,8.0,12.0,78,0.00,,,0.00,WUHU216DAVISVP2,2013-06-27 16:29:00,
2013-06-27 12:30:00,77.6,70.7,28.97,WNW,302,7.0,12.0,79,0.00,,,0.00,WUHU216DAVISVP2,2013-06-27 16:30:00,
2013-06-27 12:31:00,77.6,70.7,28.97,WNW,295,7.0,12.0,79,0.00,,,0.00,WUHU216DAVISVP2,2013-06-27 16:31:00,
2013-06-27 12:32:00,77.6,70.7,28.97,NW,321,6.0,12.0,79,0.00,,,0.00,WUHU216DAVISVP2,2013-06-27 16:32:00,
2013-06-27 12:34:00,77.8,70.9,28.96,NNW,329,8.0,12.0,79,0.00,,,0.00,WUHU216DAVISVP2,2013-06-27 16:34:00,
2013-06-27 12:35:00,78.1,71.2,28.96,NNW,332,6.0,12.0,79,0.00,,,0.00,WUHU216DAVISVP2,2013-06-27 16:35:00,
2013-06-27 12:36:00,78.3,71.4,28.96,NW,312,5.0,12.0,79,0.00,,,0.00,WUHU216DAVISVP2,2013-06-27 16:36:00,
2013-06-27 12:37:00,78.4,71.5,28.96,NW,311,10.0,12.0,79,0.00,,,0.00,WUHU216DAVISVP2,2013-06-27 16:37:00,
2013-06-27 12:39:00,78.4,70.7,28.96,NNW,340,9.0,12.0,77,0.00,,,0.00,WUHU216DAVISVP2,2013-06-27 16:39:00,
2013-06-27 12:40:00,78.4,71.1,28.96,NNW,345,9.0,12.0,78,0.00,,,0.00,WUHU216DAVISVP2,2013-06-27 16:40:00,
2013-06-27 12:41:00,78.4,71.1,28.96,North,4,8.0,12.0,78,0.00,,,0.00,WUHU216DAVISVP2,2013-06-27 16:41:00,
2013-06-27 12:42:00,78.3,71.0,28.96,North,8,10.0,12.0,78,0.00,,,0.00,WUHU216DAVISVP2,2013-06-27 16:42:00,
2013-06-27 12:44:00,78.2,70.5,28.97,NNW,339,9.0,12.0,77,0.00,,,0.00,WUHU216DAVISVP2,2013-06-27 16:44:00,
2013-06-27 12:46:00,78.2,70.9,28.96,NNW,334,10.0,12.0,78,0.00,,,0.00,WUHU216DAVISVP2,2013-06-27 16:46:00,
2013-06-27 12:47:00,78.2,70.9,28.97,NNW,328,11.0,12.0,78,0.00,,,0.00,WUHU216DAVISVP2,2013-06-27 16:47:00,
2013-06-27 12:49:00,78.1,70.4,28.97,NNW,347,7.0,12.0,77,0.00,,,0.00,WUHU216DAVISVP2,2013-06-27 16:49:00,
2013-06-27 12:51:00,78.1,70.8,28.97,North,10,10.0,12.0,78,0.00,,,0.00,WUHU216DAVISVP2,2013-06-27 16:51:00,
2013-06-27 12:52:00,78.1,70.8,28.97,NW,321,5.0,12.0,78,0.00,,,0.00,WUHU216DAVISVP2,2013-06-27 16:52:00,
2013-06-27 12:54:00,78.4,71.5,28.97,NW,308,9.0,13.0,79,0.00,,,0.00,WUHU216DAVISVP2,2013-06-27 16:54:00,
2013-06-27 12:56:00,78.5,71.6,28.96,NNW,343,3.0,13.0,79,0.00,,,0.00,WUHU216DAVISVP2,2013-06-27 16:56:00,
2013-06-27 12:57:00,78.5,71.6,28.96,NW,316,7.0,13.0,79,0.00,,,0.00,WUHU216DAVISVP2,2013-06-27 16:57:00,
2013-06-27 12:58:00,78.7,71.8,28.96,NNW,332,8.0,13.0,79,0.00,,,0.00,WUHU216DAVISVP2,2013-06-27 16:58:00,
2013-06-27 13:00:00,78.8,71.1,28.96,NNW,335,9.0,13.0,77,0.00,,,0.00,WUHU216DAVISVP2,2013-06-27 17:00:00,
2013-06-27 13:01:00,78.7,70.7,28.96,NNW,340,6.0,13.0,76,0.00,,,0.00,WUHU216DAVISVP2,2013-06-27 17:01:00,
2013-06-27 13:02:00,78.8,71.1,28.96,NNW,337,6.0,13.0,77,0.00,,,0.00,WUHU216DAVISVP2,2013-06-27 17:02:00,
2013-06-27 13:04:00,79.0,71.7,28.96,NNW,345,11.0,13.0,78,0.00,,,0.00,WUHU216DAVISVP2,2013-06-27 17:04:00,
2013-06-27 13:05:00,78.9,71.2,28.96,North,349,6.0,13.0,77,0.00,,,0.00,WUHU216DAVISVP2,2013-06-27 17:05:00,
2013-06-27 13:06:00,78.9,71.2,28.96,WNW,302,6.0,13.0,77,0.00,,,0.00,WUHU216DAVISVP2,2013-06-27 17:06:00,
2013-06-27 13:07:00,78.9,71.2,28.96,WNW,303,7.0,13.0,77,0.00,,,0.00,WUHU216DAVISVP2,2013-06-27 17:07:00,
2013-06-27 13:09:00,78.8,71.1,28.96,NNW,337,9.0,13.0,77,0.00,,,0.00,WUHU216DAVISVP2,2013-06-27 17:09:00,
2013-06-27 13:10:00,78.8,71.1,28.96,NW,313,6.0,13.0,77,0.00,,,0.00,WUHU216DAVISVP2,2013-06-27 17:10:00,
2013-06-27 13:12:00,78.8,70.8,28.96,NW,325,6.0,13.0,76,0.00,,,0.00,WUHU216DAVISVP2,2013-06-27 17:12:00,
2013-06-27 13:14:00,78.8,71.1,28.97,NNW,335,6.0,11.0,77,0.00,,,0.00,WUHU216DAVISVP2,2013-06-27 17:14:00,
2013-06-27 13:15:00,78.9,71.2,28.97,NNW,328,3.0,11.0,77,0.00,,,0.00,WUHU216DAVISVP2,2013-06-27 17:15:00,
2013-06-27 13:17:00,79.1,71.8,28.97,NNW,327,8.0,11.0,78,0.00,,,0.00,WUHU216DAVISVP2,2013-06-27 17:17:00,
2013-06-27 13:20:00,79.3,71.6,28.96,NNW,333,7.0,11.0,77,0.00,,,0.00,WUHU216DAVISVP2,2013-06-27 17:20:00,
2013-06-27 13:21:00,79.3,71.6,28.96,NNW,335,10.0,11.0,77,0.00,,,0.00,WUHU216DAVISVP2,2013-06-27 17:21:00,
2013-06-27 13:22:00,79.3,71.6,28.96,North,354,5.0,11.0,77,0.00,,,0.00,WUHU216DAVISVP2,2013-06-27 17:22:00,
2013-06-27 13:23:00,79.3,71.6,28.96,NNE,18,7.0,11.0,77,0.00,,,0.00,WUHU216DAVISVP2,2013-06-27 17:23:00,
2013-06-27 13:25:00,79.4,71.7,28.96,NW,313,7.0,11.0,77,0.00,,,0.00,WUHU216DAVISVP2,2013-06-27 17:25:00,
2013-06-27 13:26:00,79.4,71.3,28.97,NNW,335,8.0,11.0,76,0.00,,,0.00,WUHU216DAVISVP2,2013-06-27 17:26:00,
2013-06-27 13:27:00,79.6,71.9,28.97,NNW,348,7.0,11.0,77,0.00,,,0.00,WUHU216DAVISVP2,2013-06-27 17:27:00,
2013-06-27 13:28:00,79.6,71.9,28.96,NNW,332,2.0,11.0,77,0.00,,,0.00,WUHU216DAVISVP2,2013-06-27 17:28:00,
2013-06-27 13:30:00,79.9,72.2,28.97,NW,321,8.0,12.0,77,0.00,,,0.00,WUHU216DAVISVP2,2013-06-27 17:30:00,
2013-06-27 13:31:00,79.9,71.4,28.97,NW,322,11.0,12.0,75,0.00,,,0.00,WUHU216DAVISVP2,2013-06-27 17:31:00,
2013-06-27 13:32:00,79.9,71.1,28.97,WNW,294,14.0,14.0,74,0.00,,,0.00,WUHU216DAVISVP2,2013-06-27 17:32:00,
2013-06-27 13:33:00,79.8,71.0,28.97,NW,326,10.0,15.0,74,0.00,,,0.00,WUHU216DAVISVP2,2013-06-27 17:33:00,
2013-06-27 13:36:00,79.7,71.6,28.97,NNW,335,8.0,15.0,76,0.00,,,0.00,WUHU216DAVISVP2,2013-06-27 17:36:00,
2013-06-27 13:37:00,79.6,71.5,28.97,NNW,343,6.0,15.0,76,0.00,,,0.00,WUHU216DAVISVP2,2013-06-27 17:37:00,
2013-06-27 13:38:00,79.6,71.5,28.97,North,359,6.0,15.0,76,0.00,,,0.00,WUHU216DAVISVP2,2013-06-27 17:38:00,
2013-06-27 13:41:00,79.5,71.4,28.97,North,354,10.0,15.0,76,0.00,,,0.00,WUHU216DAVISVP2,2013-06-27 17:41:00,
2013-06-27 13:43:00,79.4,71.3,28.97,North,359,8.0,15.0,76,0.00,,,0.00,WUHU216DAVISVP2,2013-06-27 17:43:00,
2013-06-27 13:46:00,79.3,72.0,28.97,NW,324,7.0,15.0,78,0.00,,,0.00,WUHU216DAVISVP2,2013-06-27 17:46:00,
2013-06-27 13:48:00,79.3,71.6,28.97,North,359,11.0,15.0,77,0.00,,,0.00,WUHU216DAVISVP2,2013-06-27 17:48:00,
2013-06-27 13:49:00,79.3,71.6,28.97,NNW,331,14.0,15.0,77,0.00,,,0.00,WUHU216DAVISVP2,2013-06-27 17:49:00,
2013-06-27 13:51:00,79.3,71.6,28.97,NW,326,10.0,15.0,77,0.00,,,0.00,WUHU216DAVISVP2,2013-06-27 17:51:00,
2013-06-27 13:53:00,79.4,71.7,28.97,NNW,333,9.0,14.0,77,0.00,,,0.00,WUHU216DAVISVP2,2013-06-27 17:53:00,
2013-06-27 13:54:00,79.4,71.7,28.97,NNW,332,7.0,14.0,77,0.00,,,0.00,WUHU216DAVISVP2,2013-06-27 17:54:00,
2013-06-27 13:56:00,79.5,72.2,28.97,ENE,64,7.0,14.0,78,0.00,,,0.00,WUHU216DAVISVP2,2013-06-27 17:56:00,
2013-06-27 13:58:00,79.8,71.0,28.97,NW,319,8.0,14.0,74,0.00,,,0.00,WUHU216DAVISVP2,2013-06-27 17:58:00,
2013-06-27 13:59:00,79.8,71.3,28.97,NW,306,10.0,14.0,75,0.00,,,0.00,WUHU216DAVISVP2,2013-06-27 17:59:00,
2013-06-27 14:01:00,79.7,71.2,28.97,NW,324,10.0,14.0,75,0.00,,,0.00,WUHU216DAVISVP2,2013-06-27 18:01:00,
2013-06-27 14:02:00,79.7,71.2,28.97,NNW,347,7.0,14.0,75,0.00,,,0.00,WUHU216DAVISVP2,2013-06-27 18:02:00,
2013-06-27 14:03:00,79.6,71.5,28.96,NNW,347,6.0,14.0,76,0.00,,,0.00,WUHU216DAVISVP2,2013-06-27 18:03:00,
2013-06-27 14:04:00,79.7,72.0,28.97,NNW,331,7.0,14.0,77,0.00,,,0.00,WUHU216DAVISVP2,2013-06-27 18:04:00,
2013-06-27 14:05:00,79.7,71.6,28.97,NNW,328,8.0,14.0,76,0.00,,,0.00,WUHU216DAVISVP2,2013-06-27 18:05:00,
2013-06-27 14:06:00,79.6,71.5,28.96,WNW,291,9.0,14.0,76,0.00,,,0.00,WUHU216DAVISVP2,2013-06-27 18:06:00,
2013-06-27 14:07:00,79.6,71.5,28.96,WNW,301,6.0,14.0,76,0.00,,,0.00,WUHU216DAVISVP2,2013-06-27 18:07:00,
2013-06-27 14:08:00,79.7,71.6,28.96,NW,310,4.0,13.0,76,0.00,,,0.00,WUHU216DAVISVP2,2013-06-27 18:08:00,
2013-06-27 14:09:00,79.7,71.2,28.96,WNW,296,7.0,13.0,75,0.00,,,0.00,WUHU216DAVISVP2,2013-06-27 18:09:00,
2013-06-27 14:10:00,79.8,71.7,28.96,NNW,346,7.0,13.0,76,0.00,,,0.00,WUHU216DAVISVP2,2013-06-27 18:10:00,
2013-06-27 14:11:00,80.0,71.9,28.96,NNW,337,7.0,13.0,76,0.00,,,0.00,WUHU216DAVISVP2,2013-06-27 18:11:00,
2013-06-27 14:12:00,80.0,71.9,28.96,WNW,297,5.0,13.0,76,0.00,,,0.00,WUHU216DAVISVP2,2013-06-27 18:12:00,
2013-06-27 14:13:00,80.2,71.7,28.96,NW,308,8.0,13.0,75,0.00,,,0.00,WUHU216DAVISVP2,2013-06-27 18:13:00,
2013-06-27 14:15:00,80.2,71.7,28.96,WNW,303,6.0,13.0,75,0.00,,,0.00,WUHU216DAVISVP2,2013-06-27 18:15:00,
2013-06-27 14:16:00,80.3,71.4,28.97,NNW,336,8.0,12.0,74,0.00,,,0.00,WUHU216DAVISVP2,2013-06-27 18:16:00,
2013-06-27 14:17:00,80.3,71.8,28.97,NNW,331,8.0,12.0,75,0.00,,,0.00,WUHU216DAVISVP2,2013-06-27 18:17:00,
2013-06-27 14:18:00,80.3,71.4,28.97,NNE,17,6.0,12.0,74,0.00,,,0.00,WUHU216DAVISVP2,2013-06-27 18:18:00,
2013-06-27 14:20:00,80.4,71.2,28.97,NW,306,6.0,12.0,73,0.00,,,0.00,WUHU216DAVISVP2,2013-06-27 18:20:00,
2013-06-27 14:21:00,80.5,71.2,28.96,NNE,14,5.0,12.0,73,0.00,,,0.00,WUHU216DAVISVP2,2013-06-27 18:21:00,
2013-06-27 14:22:00,80.5,71.2,28.97,NNW,333,6.0,12.0,73,0.00,,,0.00,WUHU216DAVISVP2,2013-06-27 18:22:00,
2013-06-27 14:23:00,80.4,71.2,28.97,NW,317,7.0,11.0,73,0.00,,,0.00,WUHU216DAVISVP2,2013-06-27 18:23:00,
2013-06-27 14:25:00,80.5,71.6,28.96,North,354,7.0,11.0,74,0.00,,,0.00,WUHU216DAVISVP2,2013-06-27 18:25:00,
2013-06-27 14:26:00,80.5,71.6,28.96,WNW,299,8.0,11.0,74,0.00,,,0.00,WUHU216DAVISVP2,2013-06-27 18:26:00,
2013-06-27 14:27:00,80.7,71.0,28.96,NW,305,10.0,11.0,72,0.00,,,0.00,WUHU216DAVISVP2,2013-06-27 18:27:00,
2013-06-27 14:28:00,80.7,71.4,28.96,NW,319,10.0,13.0,73,0.00,,,0.00,WUHU216DAVISVP2,2013-06-27 18:28:00,
2013-06-27 14:30:00,80.7,71.4,28.97,NW,318,7.0,13.0,73,0.00,,,0.00,WUHU216DAVISVP2,2013-06-27 18:30:00,
2013-06-27 14:31:00,80.7,71.4,28.97,WNW,297,9.0,13.0,73,0.00,,,0.00,WUHU216DAVISVP2,2013-06-27 18:31:00,
2013-06-27 14:32:00,80.5,71.2,28.97,NW,308,10.0,13.0,73,0.00,,,0.00,WUHU216DAVISVP2,2013-06-27 18:32:00,
2013-06-27 14:33:00,80.6,71.3,28.97,WNW,290,13.0,13.0,73,0.00,,,0.00,WUHU216DAVISVP2,2013-06-27 18:33:00,
2013-06-27 14:35:00,80.5,71.6,28.97,NNW,329,8.0,13.0,74,0.00,,,0.00,WUHU216DAVISVP2,2013-06-27 18:35:00,
2013-06-27 14:36:00,80.5,71.2,28.97,NNW,330,11.0,13.0,73,0.00,,,0.00,WUHU216DAVISVP2,2013-06-27 18:36:00,
2013-06-27 14:37:00,80.5,70.9,28.97,NW,323,7.0,13.0,72,0.00,,,0.00,WUHU216DAVISVP2,2013-06-27 18:37:00,
2013-06-27 14:38:00,80.5,70.9,28.97,North,354,7.0,13.0,72,0.00,,,0.00,WUHU216DAVISVP2,2013-06-27 18:38:00,
2013-06-27 14:41:00,80.5,70.9,28.97,NNW,327,6.0,13.0,72,0.00,,,0.00,WUHU216DAVISVP2,2013-06-27 18:41:00,
2013-06-27 14:43:00,80.6,71.3,28.97,NNW,345,11.0,13.0,73,0.00,,,0.00,WUHU216DAVISVP2,2013-06-27 18:43:00,
2013-06-27 14:44:00,80.7,71.0,28.97,NW,316,7.0,13.0,72,0.00,,,0.00,WUHU216DAVISVP2,2013-06-27 18:44:00,
2013-06-27 14:46:00,80.9,71.2,28.97,NW,305,10.0,13.0,72,0.00,,,0.00,WUHU216DAVISVP2,2013-06-27 18:46:00,
2013-06-27 14:48:00,80.9,70.8,28.97,NW,308,7.0,13.0,71,0.00,,,0.00,WUHU216DAVISVP2,2013-06-27 18:48:00,
2013-06-27 14:49:00,80.9,71.2,28.97,NW,326,8.0,13.0,72,0.00,,,0.00,WUHU216DAVISVP2,2013-06-27 18:49:00,
2013-06-27 14:51:00,80.9,71.2,28.97,NW,309,10.0,14.0,72,0.00,,,0.00,WUHU216DAVISVP2,2013-06-27 18:51:00,
2013-06-27 14:53:00,80.9,70.8,28.97,WNW,303,4.0,14.0,71,0.00,,,0.00,WUHU216DAVISVP2,2013-06-27 18:53:00,
2013-06-27 14:54:00,81.0,71.7,28.97,NW,305,7.0,14.0,73,0.00,,,0.00,WUHU216DAVISVP2,2013-06-27 18:54:00,
2013-06-27 14:56:00,81.2,71.1,28.97,NNW,331,8.0,14.0,71,0.00,,,0.00,WUHU216DAVISVP2,2013-06-27 18:56:00,
2013-06-27 14:58:00,81.1,70.2,28.97,WNW,285,12.0,14.0,69,0.00,,,0.00,WUHU216DAVISVP2,2013-06-27 18:58:00,
2013-06-27 14:59:00,81.1,70.6,28.97,NW,326,11.0,16.0,70,0.00,,,0.00,WUHU216DAVISVP2,2013-06-27 18:59:00,
2013-06-27 15:01:00,81.0,70.9,28.97,WNW,293,9.0,18.0,71,0.00,,,0.00,WUHU216DAVISVP2,2013-06-27 19:01:00,
2013-06-27 15:03:00,81.0,70.1,28.96,WNW,298,9.0,18.0,69,0.00,,,0.00,WUHU216DAVISVP2,2013-06-27 19:03:00,
2013-06-27 15:04:00,81.0,70.5,28.96,WNW,294,7.0,18.0,70,0.00,,,0.00,WUHU216DAVISVP2,2013-06-27 19:04:00,
2013-06-27 15:06:00,80.9,71.2,28.96,NW,322,5.0,18.0,72,0.00,,,0.00,WUHU216DAVISVP2,2013-06-27 19:06:00,
2013-06-27 15:09:00,81.1,71.4,28.96,NW,315,8.0,18.0,72,0.00,,,0.00,WUHU216DAVISVP2,2013-06-27 19:09:00,
2013-06-27 15:12:00,81.2,71.5,28.97,WNW,297,11.0,18.0,72,0.00,,,0.00,WUHU216DAVISVP2,2013-06-27 19:12:00,
2013-06-27 15:14:00,81.2,71.1,28.97,NW,305,7.0,18.0,71,0.00,,,0.00,WUHU216DAVISVP2,2013-06-27 19:14:00,
2013-06-27 15:15:00,81.2,71.1,28.97,WNW,297,8.0,18.0,71,0.00,,,0.00,WUHU216DAVISVP2,2013-06-27 19:15:00,
2013-06-27 15:17:00,81.1,69.8,28.97,West,262,12.0,18.0,68,0.00,,,0.00,WUHU216DAVISVP2,2013-06-27 19:17:00,
2013-06-27 15:20:00,81.2,69.9,28.96,WNW,289,10.0,14.0,68,0.00,,,0.00,WUHU216DAVISVP2,2013-06-27 19:20:00,
2013-06-27 15:22:00,81.3,70.8,28.97,WNW,299,12.0,14.0,70,0.00,,,0.00,WUHU216DAVISVP2,2013-06-27 19:22:00,
2013-06-27 15:25:00,81.3,70.4,28.96,NW,321,7.0,14.0,69,0.00,,,0.00,WUHU216DAVISVP2,2013-06-27 19:25:00,
2013-06-27 15:27:00,81.4,70.9,28.96,NNW,329,7.0,14.0,70,0.00,,,0.00,WUHU216DAVISVP2,2013-06-27 19:27:00,
2013-06-27 15:30:00,81.3,70.8,28.96,NW,308,10.0,15.0,70,0.00,,,0.00,WUHU216DAVISVP2,2013-06-27 19:30:00,
2013-06-27 15:32:00,81.0,70.5,28.96,NW,320,7.0,15.0,70,0.00,,,0.00,WUHU216DAVISVP2,2013-06-27 19:32:00,
2013-06-27 15:33:00,81.0,70.9,28.96,NW,324,8.0,15.0,71,0.00,,,0.00,WUHU216DAVISVP2,2013-06-27 19:33:00,
2013-06-27 15:35:00,81.1,71.0,28.97,NW,320,7.0,15.0,71,0.00,,,0.00,WUHU216DAVISVP2,2013-06-27 19:35:00,
2013-06-27 15:38:00,81.2,71.1,28.97,NW,308,10.0,15.0,71,0.00,,,0.00,WUHU216DAVISVP2,2013-06-27 19:38:00,
2013-06-27 15:40:00,81.4,71.3,28.96,NW,313,8.0,15.0,71,0.00,,,0.00,WUHU216DAVISVP2,2013-06-27 19:40:00,
2013-06-27 15:43:00,81.5,70.8,28.96,WNW,299,13.0,20.0,70,0.00,,,0.00,WUHU216DAVISVP2,2013-06-27 19:43:00,
2013-06-27 15:45:00,81.6,70.9,28.96,NW,305,6.0,20.0,70,0.00,,,0.00,WUHU216DAVISVP2,2013-06-27 19:45:00,
2013-06-27 15:46:00,81.6,71.3,28.96,NNW,330,8.0,20.0,71,0.00,,,0.00,WUHU216DAVISVP2,2013-06-27 19:46:00,
2013-06-27 15:48:00,81.8,72.1,28.96,West,278,9.0,20.0,72,0.00,,,0.00,WUHU216DAVISVP2,2013-06-27 19:48:00,
2013-06-27 15:50:00,81.8,71.3,28.96,NW,326,14.0,20.0,70,0.00,,,0.00,WUHU216DAVISVP2,2013-06-27 19:50:00,
2013-06-27 15:51:00,81.8,71.3,28.96,WNW,302,8.0,20.0,70,0.00,,,0.00,WUHU216DAVISVP2,2013-06-27 19:51:00,
2013-06-27 15:52:00,81.6,70.4,28.95,NW,310,11.0,20.0,69,0.00,,,0.00,WUHU216DAVISVP2,2013-06-27 19:52:00,
2013-06-27 15:53:00,81.6,71.3,28.96,WNW,295,10.0,20.0,71,0.00,,,0.00,WUHU216DAVISVP2,2013-06-27 19:53:00,
2013-06-27 15:54:00,81.6,71.3,28.96,WNW,297,9.0,20.0,71,0.00,,,0.00,WUHU216DAVISVP2,2013-06-27 19:54:00,
2013-06-27 15:56:00,81.7,71.4,28.95,WNW,291,8.0,20.0,71,0.00,,,0.00,WUHU216DAVISVP2,2013-06-27 19:56:00,
2013-06-27 15:58:00,81.8,71.5,28.96,WNW,297,7.0,20.0,71,0.00,,,0.00,WUHU216DAVISVP2,2013-06-27 19:58:00,
2013-06-27 15:59:00,81.8,71.5,28.96,NW,306,3.0,20.0,71,0.00,,,0.00,WUHU216DAVISVP2,2013-06-27 19:59:00,
2013-06-27 16:01:00,82.0,71.7,28.96,NW,305,7.0,20.0,71,0.00,,,0.00,WUHU216DAVISVP2,2013-06-27 20:01:00,
2013-06-27 16:02:00,82.1,71.8,28.95,WNW,290,11.0,15.0,71,0.00,,,0.00,WUHU216DAVISVP2,2013-06-27 20:02:00,
2013-06-27 16:03:00,82.1,71.6,28.95,WNW,291,6.0,15.0,70,0.00,,,0.00,WUHU216DAVISVP2,2013-06-27 20:03:00,
2013-06-27 16:04:00,82.1,71.6,28.95,WNW,303,6.0,15.0,70,0.00,,,0.00,WUHU216DAVISVP2,2013-06-27 20:04:00,
2013-06-27 16:06:00,82.0,71.5,28.96,West,281,8.0,15.0,70,0.00,,,0.00,WUHU216DAVISVP2,2013-06-27 20:06:00,
2013-06-27 16:07:00,82.0,71.5,28.96,West,276,7.0,15.0,70,0.00,,,0.00,WUHU216DAVISVP2,2013-06-27 20:07:00,
2013-06-27 16:09:00,82.0,71.5,28.96,WNW,303,7.0,16.0,70,0.00,,,0.00,WUHU216DAVISVP2,2013-06-27 20:09:00,
2013-06-27 16:12:00,81.8,71.3,28.96,NW,320,4.0,16.0,70,0.00,,,0.00,WUHU216DAVISVP2,2013-06-27 20:12:00,
2013-06-27 16:13:00,81.7,71.2,28.96,WNW,293,10.0,16.0,70,0.00,,,0.00,WUHU216DAVISVP2,2013-06-27 20:13:00,
2013-06-27 16:14:00,81.7,71.6,28.96,WNW,303,5.0,16.0,71,0.00,,,0.00,WUHU216DAVISVP2,2013-06-27 20:14:00,
2013-06-27 16:15:00,81.8,72.1,28.96,WNW,303,9.0,16.0,72,0.00,,,0.00,WUHU216DAVISVP2,2013-06-27 20:15:00,
2013-06-27 16:16:00,81.8,71.7,28.96,NW,305,8.0,16.0,71,0.00,,,0.00,WUHU216DAVISVP2,2013-06-27 20:16:00,
2013-06-27 16:17:00,82.0,72.7,28.96,WNW,282,12.0,16.0,73,0.00,,,0.00,WUHU216DAVISVP2,2013-06-27 20:17:00,
2013-06-27 16:18:00,82.0,71.7,28.95,NW,324,9.0,16.0,71,0.00,,,0.00,WUHU216DAVISVP2,2013-06-27 20:18:00,
2013-06-27 16:19:00,82.0,71.2,28.96,NW,305,5.0,16.0,70,0.00,,,0.00,WUHU216DAVISVP2,2013-06-27 20:19:00,
2013-06-27 16:20:00,82.0,71.2,28.96,NW,305,2.0,16.0,70,0.00,,,0.00,WUHU216DAVISVP2,2013-06-27 20:20:00,
2013-06-27 16:21:00,82.0,71.7,28.96,WNW,300,10.0,16.0,71,0.00,,,0.00,WUHU216DAVISVP2,2013-06-27 20:21:00,
2013-06-27 16:23:00,82.1,71.3,28.95,NW,318,8.0,16.0,70,0.00,,,0.00,WUHU216DAVISVP2,2013-06-27 20:23:00,
2013-06-27 16:25:00,82.3,71.8,28.95,WNW,293,12.0,16.0,70,0.00,,,0.00,WUHU216DAVISVP2,2013-06-27 20:25:00,
2013-06-27 16:26:00,82.3,71.8,28.95,West,277,7.0,15.0,70,0.00,,,0.00,WUHU216DAVISVP2,2013-06-27 20:26:00,
2013-06-27 16:28:00,82.5,72.4,28.95,WNW,288,10.0,15.0,71,0.00,,,0.00,WUHU216DAVISVP2,2013-06-27 20:28:00,
2013-06-27 16:29:00,82.5,72.0,28.95,WNW,298,15.0,15.0,70,0.00,,,0.00,WUHU216DAVISVP2,2013-06-27 20:29:00,
2013-06-27 16:30:00,82.6,72.1,28.95,NW,314,12.0,15.0,70,0.00,,,0.00,WUHU216DAVISVP2,2013-06-27 20:30:00,
2013-06-27 16:31:00,82.7,71.7,28.95,NW,314,10.0,18.0,69,0.00,,,0.00,WUHU216DAVISVP2,2013-06-27 20:31:00,
2013-06-27 16:33:00,82.7,71.3,28.95,WNW,301,7.0,18.0,68,0.00,,,0.00,WUHU216DAVISVP2,2013-06-27 20:33:00,
2013-06-27 16:34:00,82.7,71.7,28.95,NNW,329,7.0,18.0,69,0.00,,,0.00,WUHU216DAVISVP2,2013-06-27 20:34:00,
2013-06-27 16:36:00,82.9,71.9,28.95,NW,320,5.0,18.0,69,0.00,,,0.00,WUHU216DAVISVP2,2013-06-27 20:36:00,
2013-06-27 16:37:00,83.0,72.0,28.95,NW,310,10.0,18.0,69,0.00,,,0.00,WUHU216DAVISVP2,2013-06-27 20:37:00,
2013-06-27 16:39:00,82.9,71.9,28.95,WNW,301,6.0,18.0,69,0.00,,,0.00,WUHU216DAVISVP2,2013-06-27 20:39:00,
2013-06-27 16:40:00,82.8,71.8,28.94,WNW,282,10.0,18.0,69,0.00,,,0.00,WUHU216DAVISVP2,2013-06-27 20:40:00,
2013-06-27 16:41:00,82.8,71.4,28.94,NW,315,9.0,18.0,68,0.00,,,0.00,WUHU216DAVISVP2,2013-06-27 20:41:00,
2013-06-27 16:42:00,82.7,71.3,28.95,WNW,297,13.0,18.0,68,0.00,,,0.00,WUHU216DAVISVP2,2013-06-27 20:42:00,
2013-06-27 16:44:00,82.8,71.8,28.94,West,270,9.0,18.0,69,0.00,,,0.00,WUHU216DAVISVP2,2013-06-27 20:44:00,
2013-06-27 16:45:00,82.9,71.9,28.94,NW,310,8.0,18.0,69,0.00,,,0.00,WUHU216DAVISVP2,2013-06-27 20:45:00,
2013-06-27 16:46:00,82.9,71.9,28.94,WNW,287,11.0,18.0,69,0.00,,,0.00,WUHU216DAVISVP2,2013-06-27 20:46:00,
2013-06-27 16:48:00,82.9,71.5,28.94,WNW,290,11.0,18.0,68,0.00,,,0.00,WUHU216DAVISVP2,2013-06-27 20:48:00,
2013-06-27 16:50:00,82.8,71.8,28.93,NW,309,9.0,16.0,69,0.00,,,0.00,WUHU216DAVISVP2,2013-06-27 20:50:00,
2013-06-27 16:51:00,82.9,72.3,28.93,WNW,303,9.0,16.0,70,0.00,,,0.00,WUHU216DAVISVP2,2013-06-27 20:51:00,
2013-06-27 16:52:00,82.9,72.3,28.93,WNW,295,10.0,16.0,70,0.00,,,0.00,WUHU216DAVISVP2,2013-06-27 20:52:00,
2013-06-27 16:53:00,83.0,72.0,28.93,WNW,299,16.0,16.0,69,0.00,,,0.00,WUHU216DAVISVP2,2013-06-27 20:53:00,
2013-06-27 16:55:00,83.0,72.4,28.93,WNW,297,10.0,16.0,70,0.00,,,0.00,WUHU216DAVISVP2,2013-06-27 20:55:00,
2013-06-27 16:57:00,83.0,71.6,28.93,NW,306,15.0,16.0,68,0.00,,,0.00,WUHU216DAVISVP2,2013-06-27 20:57:00,
2013-06-27 16:59:00,83.0,71.6,28.93,WNW,303,8.0,19.0,68,0.00,,,0.00,WUHU216DAVISVP2,2013-06-27 20:59:00,
2013-06-27 17:01:00,83.2,71.8,28.93,WNW,288,9.0,19.0,68,0.00,,,0.00,WUHU216DAVISVP2,2013-06-27 21:01:00,
2013-06-27 17:02:00,83.3,71.9,28.93,NW,316,11.0,19.0,68,0.00,,,0.00,WUHU216DAVISVP2,2013-06-27 21:02:00,
2013-06-27 17:04:00,83.4,71.6,28.93,NNW,330,5.0,19.0,67,0.00,,,0.00,WUHU216DAVISVP2,2013-06-27 21:04:00,
2013-06-27 17:06:00,83.2,71.4,28.94,NW,305,14.0,19.0,67,0.00,,,0.00,WUHU216DAVISVP2,2013-06-27 21:06:00,
2013-06-27 17:07:00,83.0,71.2,28.93,WNW,283,14.0,19.0,67,0.00,,,0.00,WUHU216DAVISVP2,2013-06-27 21:07:00,
2013-06-27 17:09:00,82.8,71.4,28.93,WNW,296,10.0,19.0,68,0.00,,,0.00,WUHU216DAVISVP2,2013-06-27 21:09:00,
2013-06-27 17:10:00,82.6,71.2,28.93,WNW,287,11.0,19.0,68,0.00,,,0.00,WUHU216DAVISVP2,2013-06-27 21:10:00,
2013-06-27 17:12:00,82.3,71.4,28.93,NW,324,7.0,19.0,69,0.00,,,0.00,WUHU216DAVISVP2,2013-06-27 21:12:00,
2013-06-27 17:13:00,82.3,71.4,28.93,NNW,339,7.0,19.0,69,0.00,,,0.00,WUHU216DAVISVP2,2013-06-27 21:13:00,
2013-06-27 17:14:00,82.2,71.7,28.93,NW,309,8.0,19.0,70,0.00,,,0.00,WUHU216DAVISVP2,2013-06-27 21:14:00,
2013-06-27 17:15:00,82.1,71.6,28.93,NW,304,9.0,19.0,70,0.00,,,0.00,WUHU216DAVISVP2,2013-06-27 21:15:00,
2013-06-27 17:18:00,82.0,71.5,28.93,WNW,300,7.0,16.0,70,0.00,,,0.00,WUHU216DAVISVP2,2013-06-27 21:18:00,
2013-06-27 17:19:00,81.9,71.8,28.92,WNW,295,6.0,15.0,71,0.00,,,0.00,WUHU216DAVISVP2,2013-06-27 21:19:00,
2013-06-27 17:20:00,81.9,71.4,28.92,NW,307,4.0,15.0,70,0.00,,,0.00,WUHU216DAVISVP2,2013-06-27 21:20:00,
2013-06-27 17:23:00,81.8,71.7,28.92,WNW,283,10.0,15.0,71,0.00,,,0.00,WUHU216DAVISVP2,2013-06-27 21:23:00,
2013-06-27 17:24:00,81.8,71.7,28.92,WNW,285,6.0,15.0,71,0.00,,,0.00,WUHU216DAVISVP2,2013-06-27 21:24:00,
2013-06-27 17:25:00,81.8,71.7,28.93,WNW,289,4.0,15.0,71,0.00,,,0.00,WUHU216DAVISVP2,2013-06-27 21:25:00,
2013-06-27 17:28:00,81.8,71.3,28.93,WNW,286,7.0,14.0,70,0.00,,,0.00,WUHU216DAVISVP2,2013-06-27 21:28:00,
2013-06-27 17:29:00,81.8,71.3,28.93,WNW,301,10.0,14.0,70,0.00,,,0.00,WUHU216DAVISVP2,2013-06-27 21:29:00,
2013-06-27 17:30:00,81.8,71.3,28.93,NW,307,9.0,14.0,70,0.00,,,0.00,WUHU216DAVISVP2,2013-06-27 21:30:00,
2013-06-27 17:31:00,81.9,71.8,28.93,WNW,297,6.0,14.0,71,0.00,,,0.00,WUHU216DAVISVP2,2013-06-27 21:31:00,
2013-06-27 17:34:00,81.9,71.8,28.93,WNW,296,10.0,14.0,71,0.00,,,0.00,WUHU216DAVISVP2,2013-06-27 21:34:00,
2013-06-27 17:35:00,81.9,71.8,28.93,WNW,293,9.0,13.0,71,0.00,,,0.00,WUHU216DAVISVP2,2013-06-27 21:35:00,
2013-06-27 17:36:00,81.9,71.8,28.93,WNW,298,8.0,13.0,71,0.00,,,0.00,WUHU216DAVISVP2,2013-06-27 21:36:00,
2013-06-27 17:39:00,81.8,71.7,28.93,NW,310,11.0,13.0,71,0.00,,,0.00,WUHU216DAVISVP2,2013-06-27 21:39:00,
2013-06-27 17:41:00,81.8,71.7,28.93,West,281,12.0,13.0,71,0.00,,,0.00,WUHU216DAVISVP2,2013-06-27 21:41:00,
2013-06-27 17:44:00,81.6,71.5,28.93,WNW,295,11.0,13.0,71,0.00,,,0.00,WUHU216DAVISVP2,2013-06-27 21:44:00,
2013-06-27 17:45:00,81.6,71.5,28.93,WNW,296,9.0,13.0,71,0.00,,,0.00,WUHU216DAVISVP2,2013-06-27 21:45:00,
2013-06-27 17:46:00,81.5,71.4,28.93,NW,318,7.0,13.0,71,0.00,,,0.00,WUHU216DAVISVP2,2013-06-27 21:46:00,
2013-06-27 17:47:00,81.5,71.8,28.93,WNW,291,5.0,13.0,72,0.00,,,0.00,WUHU216DAVISVP2,2013-06-27 21:47:00,
2013-06-27 17:50:00,81.4,71.7,28.93,WNW,303,7.0,13.0,72,0.00,,,0.00,WUHU216DAVISVP2,2013-06-27 21:50:00,
2013-06-27 17:51:00,81.4,71.7,28.93,WNW,291,6.0,13.0,72,0.00,,,0.00,WUHU216DAVISVP2,2013-06-27 21:51:00,
2013-06-27 17:53:00,81.3,71.6,28.93,WNW,297,5.0,13.0,72,0.00,,,0.00,WUHU216DAVISVP2,2013-06-27 21:53:00,
2013-06-27 17:56:00,81.3,71.6,28.93,WNW,286,7.0,13.0,72,0.00,,,0.00,WUHU216DAVISVP2,2013-06-27 21:56:00,
2013-06-27 17:59:00,81.2,71.5,28.93,West,276,9.0,13.0,72,0.00,,,0.00,WUHU216DAVISVP2,2013-06-27 21:59:00,
2013-06-27 18:01:00,81.2,71.9,28.93,West,271,7.0,13.0,73,0.00,,,0.00,WUHU216DAVISVP2,2013-06-27 22:01:00,
2013-06-27 18:03:00,81.2,72.3,28.92,West,267,1.0,13.0,74,0.00,,,0.00,WUHU216DAVISVP2,2013-06-27 22:03:00,
2013-06-27 18:04:00,81.2,71.9,28.92,West,278,6.0,12.0,73,0.00,,,0.00,WUHU216DAVISVP2,2013-06-27 22:04:00,
2013-06-27 18:06:00,81.1,71.8,28.92,WNW,291,6.0,12.0,73,0.00,,,0.00,WUHU216DAVISVP2,2013-06-27 22:06:00,
2013-06-27 18:08:00,81.1,71.8,28.92,WNW,289,6.0,12.0,73,0.00,,,0.00,WUHU216DAVISVP2,2013-06-27 22:08:00,
2013-06-27 18:09:00,81.1,71.8,28.92,West,272,8.0,12.0,73,0.00,,,0.00,WUHU216DAVISVP2,2013-06-27 22:09:00,
2013-06-27 18:11:00,81.0,71.7,28.92,WNW,297,7.0,12.0,73,0.00,,,0.00,WUHU216DAVISVP2,2013-06-27 22:11:00,
2013-06-27 18:12:00,80.9,71.6,28.92,WNW,297,12.0,15.0,73,0.00,,,0.00,WUHU216DAVISVP2,2013-06-27 22:12:00,
2013-06-27 18:15:00,80.7,71.8,28.92,WSW,245,11.0,15.0,74,0.00,,,0.00,WUHU216DAVISVP2,2013-06-27 22:15:00,
2013-06-27 18:16:00,80.5,72.0,28.92,WNW,296,7.0,15.0,75,0.00,,,0.00,WUHU216DAVISVP2,2013-06-27 22:16:00,
2013-06-27 18:17:00,80.5,72.0,28.92,WSW,256,8.0,15.0,75,0.00,,,0.00,WUHU216DAVISVP2,2013-06-27 22:17:00,
2013-06-27 18:20:00,80.1,72.0,28.92,West,259,6.0,15.0,76,0.00,,,0.00,WUHU216DAVISVP2,2013-06-27 22:20:00,
2013-06-27 18:21:00,80.1,72.0,28.92,West,261,10.0,15.0,76,0.00,,,0.00,WUHU216DAVISVP2,2013-06-27 22:21:00,
2013-06-27 18:22:00,79.8,71.7,28.91,WSW,245,12.0,16.0,76,0.00,,,0.00,WUHU216DAVISVP2,2013-06-27 22:22:00,
2013-06-27 18:23:00,79.6,71.5,28.91,WSW,256,15.0,16.0,76,0.00,,,0.00,WUHU216DAVISVP2,2013-06-27 22:23:00,
2013-06-27 18:25:00,79.3,71.2,28.91,West,260,9.0,18.0,76,0.00,,,0.00,WUHU216DAVISVP2,2013-06-27 22:25:00,
2013-06-27 18:26:00,79.2,71.5,28.91,West,272,12.0,18.0,77,0.00,,,0.00,WUHU216DAVISVP2,2013-06-27 22:26:00,
2013-06-27 18:27:00,79.1,71.0,28.91,WNW,293,8.0,18.0,76,0.00,,,0.00,WUHU216DAVISVP2,2013-06-27 22:27:00,
2013-06-27 18:28:00,79.1,71.0,28.91,West,277,7.0,18.0,76,0.00,,,0.00,WUHU216DAVISVP2,2013-06-27 22:28:00,
2013-06-27 18:30:00,79.1,70.7,28.91,West,261,6.0,18.0,75,0.00,,,0.00,WUHU216DAVISVP2,2013-06-27 22:30:00,
2013-06-27 18:32:00,79.1,70.3,28.91,West,281,11.0,18.0,74,0.00,,,0.00,WUHU216DAVISVP2,2013-06-27 22:32:00,
2013-06-27 18:33:00,79.1,69.9,28.91,West,277,7.0,18.0,73,0.00,,,0.00,WUHU216DAVISVP2,2013-06-27 22:33:00,
2013-06-27 18:36:00,79.2,70.0,28.91,West,268,5.0,18.0,73,0.00,,,0.00,WUHU216DAVISVP2,2013-06-27 22:36:00,
2013-06-27 18:38:00,79.2,70.0,28.90,West,265,9.0,18.0,73,0.00,,,0.00,WUHU216DAVISVP2,2013-06-27 22:38:00,
2013-06-27 18:39:00,79.2,69.6,28.90,WSW,255,4.0,18.0,72,0.00,,,0.00,WUHU216DAVISVP2,2013-06-27 22:39:00,
2013-06-27 18:42:00,79.3,68.9,28.91,West,268,7.0,18.0,70,0.00,,,0.00,WUHU216DAVISVP2,2013-06-27 22:42:00,
2013-06-27 18:43:00,79.5,69.5,28.91,NW,309,6.0,15.0,71,0.00,,,0.00,WUHU216DAVISVP2,2013-06-27 22:43:00,
2013-06-27 18:46:00,79.6,68.8,28.91,WNW,291,7.0,15.0,69,0.00,,,0.00,WUHU216DAVISVP2,2013-06-27 22:46:00,
2013-06-27 18:48:00,79.7,68.9,28.91,WNW,293,7.0,15.0,69,0.00,,,0.00,WUHU216DAVISVP2,2013-06-27 22:48:00,
2013-06-27 18:49:00,79.6,69.2,28.91,WNW,283,6.0,15.0,70,0.00,,,0.00,WUHU216DAVISVP2,2013-06-27 22:49:00,
2013-06-27 18:50:00,79.6,69.6,28.91,WNW,294,9.0,15.0,71,0.00,,,0.00,WUHU216DAVISVP2,2013-06-27 22:50:00,
2013-06-27 18:51:00,79.4,69.0,28.91,WNW,301,7.0,13.0,70,0.00,,,0.00,WUHU216DAVISVP2,2013-06-27 22:51:00,
2013-06-27 18:53:00,79.3,68.9,28.91,WNW,284,5.0,13.0,70,0.00,,,0.00,WUHU216DAVISVP2,2013-06-27 22:53:00,
2013-06-27 18:54:00,79.2,69.2,28.91,WNW,292,6.0,13.0,71,0.00,,,0.00,WUHU216DAVISVP2,2013-06-27 22:54:00,
2013-06-27 18:56:00,79.0,68.8,28.91,WNW,287,5.0,11.0,71,0.00,,,0.00,WUHU216DAVISVP2,2013-06-27 22:56:00,
2013-06-27 18:57:00,78.9,68.7,28.91,WNW,283,9.0,11.0,71,0.00,,,0.00,WUHU216DAVISVP2,2013-06-27 22:57:00,
2013-06-27 18:58:00,78.9,68.7,28.91,West,269,5.0,11.0,71,0.00,,,0.00,WUHU216DAVISVP2,2013-06-27 22:58:00,
2013-06-27 19:00:00,78.8,68.4,28.91,West,279,5.0,11.0,70,0.00,,,0.00,WUHU216DAVISVP2,2013-06-27 23:00:00,
2013-06-27 19:01:00,78.7,68.7,28.91,WNW,288,8.0,11.0,71,0.00,,,0.00,WUHU216DAVISVP2,2013-06-27 23:01:00,
2013-06-27 19:02:00,78.7,68.7,28.91,West,277,9.0,11.0,71,0.00,,,0.00,WUHU216DAVISVP2,2013-06-27 23:02:00,
2013-06-27 19:04:00,78.6,68.6,28.91,West,272,6.0,12.0,71,0.00,,,0.00,WUHU216DAVISVP2,2013-06-27 23:04:00,
2013-06-27 19:06:00,78.6,69.0,28.91,West,272,6.0,12.0,72,0.00,,,0.00,WUHU216DAVISVP2,2013-06-27 23:06:00,
2013-06-27 19:08:00,78.6,69.0,28.91,WNW,292,3.0,12.0,72,0.00,,,0.00,WUHU216DAVISVP2,2013-06-27 23:08:00,
2013-06-27 19:09:00,78.5,68.9,28.91,West,276,8.0,12.0,72,0.00,,,0.00,WUHU216DAVISVP2,2013-06-27 23:09:00,
2013-06-27 19:11:00,78.5,68.9,28.91,West,275,4.0,12.0,72,0.00,,,0.00,WUHU216DAVISVP2,2013-06-27 23:11:00,
2013-06-27 19:12:00,78.5,68.9,28.91,West,275,4.0,12.0,72,0.00,,,0.00,WUHU216DAVISVP2,2013-06-27 23:12:00,
2013-06-27 19:13:00,78.5,69.3,28.91,West,271,6.0,12.0,73,0.00,,,0.00,WUHU216DAVISVP2,2013-06-27 23:13:00,
2013-06-27 19:15:00,78.5,68.9,28.91,WNW,283,5.0,12.0,72,0.00,,,0.00,WUHU216DAVISVP2,2013-06-27 23:15:00,
2013-06-27 19:17:00,78.5,68.9,28.90,WNW,284,5.0,12.0,72,0.00,,,0.00,WUHU216DAVISVP2,2013-06-27 23:17:00,
2013-06-27 19:18:00,78.5,68.7,28.90,WNW,284,6.0,12.0,72,0.00,,,0.00,WUHU216DAVISVP2,2013-06-27 23:18:00,
2013-06-27 19:21:00,78.6,69.2,28.90,WNW,284,4.0,12.0,73,0.00,,,0.00,WUHU216DAVISVP2,2013-06-27 23:21:00,
2013-06-27 19:22:00,78.6,69.2,28.90,West,280,3.0,10.0,73,0.00,,,0.00,WUHU216DAVISVP2,2013-06-27 23:22:00,
2013-06-27 19:23:00,78.5,68.7,28.90,West,280,1.0,10.0,72,0.00,,,0.00,WUHU216DAVISVP2,2013-06-27 23:23:00,
2013-06-27 19:26:00,78.6,68.8,28.89,West,280,2.0,8.0,72,0.00,,,0.00,WUHU216DAVISVP2,2013-06-27 23:26:00,
2013-06-27 19:27:00,78.6,69.2,28.89,West,280,5.0,8.0,73,0.00,,,0.00,WUHU216DAVISVP2,2013-06-27 23:27:00,
2013-06-27 19:28:00,78.6,69.2,28.89,West,277,5.0,10.0,73,0.00,,,0.00,WUHU216DAVISVP2,2013-06-27 23:28:00,
2013-06-27 19:30:00,78.6,68.8,28.89,West,277,1.0,10.0,72,0.00,,,0.00,WUHU216DAVISVP2,2013-06-27 23:30:00,
2013-06-27 19:32:00,78.5,68.9,28.89,West,277,2.0,10.0,72,0.00,,,0.00,WUHU216DAVISVP2,2013-06-27 23:32:00,
2013-06-27 19:33:00,78.5,68.9,28.89,West,277,4.0,10.0,72,0.00,,,0.00,WUHU216DAVISVP2,2013-06-27 23:33:00,
2013-06-27 19:35:00,78.5,68.9,28.89,West,277,2.0,10.0,72,0.00,,,0.00,WUHU216DAVISVP2,2013-06-27 23:35:00,
2013-06-27 19:38:00,78.4,68.8,28.89,West,277,3.0,10.0,72,0.00,,,0.00,WUHU216DAVISVP2,2013-06-27 23:38:00,
2013-06-27 19:40:00,78.4,68.4,28.89,West,276,0.0,10.0,71,0.00,,,0.00,WUHU216DAVISVP2,2013-06-27 23:40:00,
2013-06-27 19:43:00,78.3,68.1,28.88,West,276,4.0,10.0,71,0.00,,,0.00,WUHU216DAVISVP2,2013-06-27 23:43:00,
2013-06-27 19:44:00,78.3,68.1,28.89,West,276,4.0,10.0,71,0.00,,,0.00,WUHU216DAVISVP2,2013-06-27 23:44:00,
2013-06-27 19:45:00,78.3,68.1,28.89,West,276,4.0,10.0,71,0.00,,,0.00,WUHU216DAVISVP2,2013-06-27 23:45:00,
2013-06-27 19:48:00,78.2,68.0,28.88,West,273,5.0,8.0,71,0.00,,,0.00,WUHU216DAVISVP2,2013-06-27 23:48:00,
2013-06-27 19:49:00,78.2,68.0,28.88,West,274,2.0,8.0,71,0.00,,,0.00,WUHU216DAVISVP2,2013-06-27 23:49:00,
2013-06-27 19:50:00,78.2,68.0,28.88,West,274,2.0,7.0,71,0.00,,,0.00,WUHU216DAVISVP2,2013-06-27 23:50:00,
2013-06-27 19:53:00,78.2,68.0,28.88,WSW,256,2.0,8.0,71,0.00,,,0.00,WUHU216DAVISVP2,2013-06-27 23:53:00,
2013-06-27 19:54:00,78.2,68.0,28.88,WSW,256,2.0,8.0,71,0.00,,,0.00,WUHU216DAVISVP2,2013-06-27 23:54:00,
2013-06-27 19:56:00,78.1,68.1,28.88,WSW,256,5.0,9.0,71,0.00,,,0.00,WUHU216DAVISVP2,2013-06-27 23:56:00,
2013-06-27 19:59:00,78.1,68.1,28.89,WSW,247,6.0,9.0,71,0.00,,,0.00,WUHU216DAVISVP2,2013-06-27 23:59:00,
2013-06-27 20:01:00,78.1,68.1,28.89,WSW,247,3.0,9.0,71,0.00,,,0.00,WUHU216DAVISVP2,2013-06-28 00:01:00,
2013-06-27 20:04:00,78.1,68.1,28.89,WSW,246,4.0,9.0,71,0.00,,,0.00,WUHU216DAVISVP2,2013-06-28 00:04:00,
2013-06-27 20:07:00,78.2,68.0,28.88,WSW,247,0.0,9.0,71,0.00,,,0.00,WUHU216DAVISVP2,2013-06-28 00:07:00,
2013-06-27 20:09:00,78.2,68.0,28.88,WSW,246,3.0,9.0,71,0.00,,,0.00,WUHU216DAVISVP2,2013-06-28 00:09:00,
2013-06-27 20:10:00,78.2,68.0,28.89,West,260,0.0,9.0,71,0.00,,,0.00,WUHU216DAVISVP2,2013-06-28 00:10:00,
2013-06-27 20:12:00,78.3,68.1,28.89,West,262,3.0,9.0,71,0.00,,,0.00,WUHU216DAVISVP2,2013-06-28 00:12:00,
2013-06-27 20:14:00,78.3,68.1,28.89,West,268,6.0,9.0,71,0.00,,,0.00,WUHU216DAVISVP2,2013-06-28 00:14:00,
2013-06-27 20:15:00,78.3,68.1,28.89,West,268,4.0,9.0,71,0.00,,,0.00,WUHU216DAVISVP2,2013-06-28 00:15:00,
2013-06-27 20:16:00,78.4,68.2,28.90,West,267,3.0,9.0,71,0.00,,,0.00,WUHU216DAVISVP2,2013-06-28 00:16:00,
2013-06-27 20:18:00,78.4,68.2,28.90,West,267,0.0,9.0,71,0.00,,,0.00,WUHU216DAVISVP2,2013-06-28 00:18:00,
2013-06-27 20:20:00,78.4,68.4,28.90,West,268,0.0,9.0,71,0.00,,,0.00,WUHU216DAVISVP2,2013-06-28 00:20:00,
2013-06-27 20:21:00,78.4,68.4,28.90,West,267,3.0,9.0,71,0.00,,,0.00,WUHU216DAVISVP2,2013-06-28 00:21:00,
2013-06-27 20:24:00,78.4,68.4,28.90,West,268,4.0,8.0,71,0.00,,,0.00,WUHU216DAVISVP2,2013-06-28 00:24:00,
2013-06-27 20:25:00,78.4,68.4,28.91,West,268,2.0,8.0,71,0.00,,,0.00,WUHU216DAVISVP2,2013-06-28 00:25:00,
2013-06-27 20:26:00,78.4,68.4,28.91,West,267,4.0,8.0,71,0.00,,,0.00,WUHU216DAVISVP2,2013-06-28 00:26:00,
2013-06-27 20:30:00,78.4,68.4,28.90,West,267,5.0,8.0,71,0.00,,,0.00,WUHU216DAVISVP2,2013-06-28 00:30:00,
2013-06-27 20:32:00,78.4,68.4,28.90,West,268,2.0,6.0,71,0.00,,,0.00,WUHU216DAVISVP2,2013-06-28 00:32:00,
2013-06-27 20:33:00,78.4,67.8,28.90,West,267,3.0,6.0,70,0.00,,,0.00,WUHU216DAVISVP2,2013-06-28 00:33:00,
2013-06-27 20:35:00,78.4,68.2,28.89,West,267,3.0,6.0,71,0.00,,,0.00,WUHU216DAVISVP2,2013-06-28 00:35:00,
2013-06-27 20:36:00,78.4,68.2,28.89,West,268,0.0,6.0,71,0.00,,,0.00,WUHU216DAVISVP2,2013-06-28 00:36:00,
2013-06-27 20:38:00,78.4,67.8,28.89,West,265,0.0,6.0,70,0.00,,,0.00,WUHU216DAVISVP2,2013-06-28 00:38:00,
2013-06-27 20:40:00,78.3,67.7,28.89,West,265,0.0,6.0,70,0.00,,,0.00,WUHU216DAVISVP2,2013-06-28 00:40:00,
2013-06-27 20:41:00,78.3,67.7,28.89,West,265,0.0,6.0,70,0.00,,,0.00,WUHU216DAVISVP2,2013-06-28 00:41:00,
2013-06-27 20:43:00,78.3,68.1,28.89,West,265,0.0,6.0,71,0.00,,,0.00,WUHU216DAVISVP2,2013-06-28 00:43:00,
2013-06-27 20:45:00,78.2,68.6,28.89,West,265,1.0,6.0,72,0.00,,,0.00,WUHU216DAVISVP2,2013-06-28 00:45:00,
2013-06-27 20:47:00,78.1,68.5,28.89,West,265,2.0,6.0,72,0.00,,,0.00,WUHU216DAVISVP2,2013-06-28 00:47:00,
2013-06-27 20:48:00,78.0,68.8,28.89,West,265,1.0,5.0,73,0.00,,,0.00,WUHU216DAVISVP2,2013-06-28 00:48:00,
2013-06-27 20:50:00,77.8,68.6,28.89,West,265,1.0,5.0,73,0.00,,,0.00,WUHU216DAVISVP2,2013-06-28 00:50:00,
2013-06-27 20:51:00,77.8,68.6,28.89,West,265,1.0,5.0,73,0.00,,,0.00,WUHU216DAVISVP2,2013-06-28 00:51:00,
2013-06-27 20:52:00,77.7,68.9,28.89,West,265,0.0,5.0,74,0.00,,,0.00,WUHU216DAVISVP2,2013-06-28 00:52:00,
2013-06-27 20:53:00,77.6,68.8,28.89,West,265,2.0,5.0,74,0.00,,,0.00,WUHU216DAVISVP2,2013-06-28 00:53:00,
2013-06-27 20:56:00,77.6,68.8,28.88,West,265,0.0,5.0,74,0.00,,,0.00,WUHU216DAVISVP2,2013-06-28 00:56:00,
2013-06-27 20:58:00,77.5,68.9,28.88,West,264,2.0,5.0,75,0.00,,,0.00,WUHU216DAVISVP2,2013-06-28 00:58:00,
2013-06-27 20:59:00,77.5,68.9,28.88,West,264,2.0,5.0,75,0.00,,,0.00,WUHU216DAVISVP2,2013-06-28 00:59:00,
2013-06-27 21:01:00,77.4,68.9,28.88,West,264,0.0,5.0,75,0.00,,,0.00,WUHU216DAVISVP2,2013-06-28 01:01:00,
2013-06-27 21:02:00,77.4,68.9,28.88,West,264,0.0,5.0,75,0.00,,,0.00,WUHU216DAVISVP2,2013-06-28 01:02:00,
2013-06-27 21:03:00,77.4,68.9,28.88,West,264,4.0,5.0,75,0.00,,,0.00,WUHU216DAVISVP2,2013-06-28 01:03:00,
2013-06-27 21:04:00,77.4,68.9,28.88,West,264,2.0,5.0,75,0.00,,,0.00,WUHU216DAVISVP2,2013-06-28 01:04:00,
2013-06-27 21:06:00,77.4,69.2,28.88,West,264,0.0,5.0,76,0.00,,,0.00,WUHU216DAVISVP2,2013-06-28 01:06:00,
2013-06-27 21:07:00,77.4,68.9,28.88,West,264,2.0,5.0,75,0.00,,,0.00,WUHU216DAVISVP2,2013-06-28 01:07:00,
2013-06-27 21:09:00,77.4,69.0,28.88,West,264,3.0,5.0,75,0.00,,,0.00,WUHU216DAVISVP2,2013-06-28 01:09:00,
2013-06-27 21:11:00,77.4,69.0,28.88,West,260,1.0,6.0,75,0.00,,,0.00,WUHU216DAVISVP2,2013-06-28 01:11:00,
2013-06-27 21:12:00,77.4,69.0,28.87,West,259,1.0,6.0,75,0.00,,,0.00,WUHU216DAVISVP2,2013-06-28 01:12:00,
2013-06-27 21:14:00,77.4,69.4,28.87,SSW,195,3.0,6.0,76,0.00,,,0.00,WUHU216DAVISVP2,2013-06-28 01:14:00,
2013-06-27 21:16:00,77.4,69.0,28.86,SSW,201,1.0,9.0,75,0.00,,,0.00,WUHU216DAVISVP2,2013-06-28 01:16:00,
2013-06-27 21:17:00,77.4,69.0,28.86,SSW,208,1.0,9.0,75,0.00,,,0.00,WUHU216DAVISVP2,2013-06-28 01:17:00,
2013-06-27 21:19:00,77.3,69.3,28.86,SW,223,5.0,9.0,76,0.00,,,0.00,WUHU216DAVISVP2,2013-06-28 01:19:00,
2013-06-27 21:22:00,77.1,69.1,28.87,WSW,246,5.0,9.0,76,0.00,,,0.00,WUHU216DAVISVP2,2013-06-28 01:22:00,
2013-06-27 21:24:00,77.1,69.1,28.87,WSW,246,4.0,9.0,76,0.00,,,0.00,WUHU216DAVISVP2,2013-06-28 01:24:00,
2013-06-27 21:27:00,77.2,69.0,28.87,WSW,246,4.0,9.0,76,0.00,,,0.00,WUHU216DAVISVP2,2013-06-28 01:27:00,
2013-06-27 21:28:00,77.2,69.0,28.87,WSW,246,3.0,9.0,76,0.00,,,0.00,WUHU216DAVISVP2,2013-06-28 01:28:00,
2013-06-27 21:30:00,77.3,69.1,28.88,WSW,246,4.0,9.0,76,0.00,,,0.00,WUHU216DAVISVP2,2013-06-28 01:30:00,
2013-06-27 21:32:00,77.4,69.2,28.88,NE,37,7.0,10.0,76,0.00,,,0.00,WUHU216DAVISVP2,2013-06-28 01:32:00,
2013-06-27 21:33:00,77.4,69.6,28.88,ENE,60,13.0,13.0,77,0.00,,,0.00,WUHU216DAVISVP2,2013-06-28 01:33:00,
2013-06-27 21:35:00,77.2,69.4,28.88,NE,38,8.0,14.0,77,0.00,,,0.00,WUHU216DAVISVP2,2013-06-28 01:35:00,
2013-06-27 21:37:00,77.1,69.3,28.88,NE,35,3.0,14.0,77,0.00,,,0.00,WUHU216DAVISVP2,2013-06-28 01:37:00,
2013-06-27 21:38:00,77.1,69.3,28.88,NE,49,5.0,14.0,77,0.00,,,0.00,WUHU216DAVISVP2,2013-06-28 01:38:00,
2013-06-27 21:40:00,77.0,69.2,28.88,ENE,58,2.0,14.0,77,0.00,,,0.00,WUHU216DAVISVP2,2013-06-28 01:40:00,
2013-06-27 21:42:00,77.0,69.2,28.88,ENE,58,0.0,14.0,77,0.00,,,0.00,WUHU216DAVISVP2,2013-06-28 01:42:00,
2013-06-27 21:43:00,77.0,69.2,28.88,ENE,58,1.0,14.0,77,0.00,,,0.00,WUHU216DAVISVP2,2013-06-28 01:43:00,
2013-06-27 21:44:00,77.0,69.2,28.88,ENE,58,0.0,14.0,77,0.00,,,0.00,WUHU216DAVISVP2,2013-06-28 01:44:00,
2013-06-27 21:46:00,77.0,69.6,28.88,ENE,66,3.0,14.0,78,0.00,,,0.00,WUHU216DAVISVP2,2013-06-28 01:46:00,
2013-06-27 21:48:00,77.0,69.4,28.89,NE,41,7.0,14.0,77,0.00,,,0.00,WUHU216DAVISVP2,2013-06-28 01:48:00,
2013-06-27 21:49:00,77.0,69.4,28.89,NE,48,5.0,14.0,77,0.00,,,0.00,WUHU216DAVISVP2,2013-06-28 01:49:00,
2013-06-27 21:51:00,77.0,69.4,28.89,NE,48,0.0,14.0,77,0.00,,,0.00,WUHU216DAVISVP2,2013-06-28 01:51:00,
2013-06-27 21:53:00,77.1,69.5,28.89,NE,48,0.0,11.0,77,0.00,,,0.00,WUHU216DAVISVP2,2013-06-28 01:53:00,
2013-06-27 21:54:00,77.1,69.5,28.89,NE,48,0.0,11.0,77,0.00,,,0.00,WUHU216DAVISVP2,2013-06-28 01:54:00,
2013-06-27 21:56:00,77.1,69.3,28.89,NE,48,0.0,8.0,77,0.00,,,0.00,WUHU216DAVISVP2,2013-06-28 01:56:00,
2013-06-27 21:57:00,77.1,68.9,28.88,NE,48,0.0,8.0,76,0.00,,,0.00,WUHU216DAVISVP2,2013-06-28 01:57:00,
2013-06-27 21:58:00,77.1,68.9,28.88,NE,48,0.0,8.0,76,0.00,,,0.00,WUHU216DAVISVP2,2013-06-28 01:58:00,
2013-06-27 21:59:00,77.1,69.1,28.89,NE,48,0.0,8.0,76,0.00,,,0.00,WUHU216DAVISVP2,2013-06-28 01:59:00,
2013-06-27 22:01:00,77.1,69.5,28.89,NE,48,1.0,8.0,77,0.00,,,0.00,WUHU216DAVISVP2,2013-06-28 02:01:00,
2013-06-27 22:02:00,77.1,69.5,28.89,NE,48,1.0,8.0,77,0.00,,,0.00,WUHU216DAVISVP2,2013-06-28 02:02:00,
2013-06-27 22:04:00,77.1,69.5,28.89,NE,48,0.0,8.0,77,0.00,,,0.00,WUHU216DAVISVP2,2013-06-28 02:04:00,
2013-06-27 22:06:00,77.1,69.5,28.89,NE,48,0.0,7.0,77,0.00,,,0.00,WUHU216DAVISVP2,2013-06-28 02:06:00,
2013-06-27 22:07:00,77.1,69.5,28.89,NE,48,0.0,6.0,77,0.00,,,0.00,WUHU216DAVISVP2,2013-06-28 02:07:00,
2013-06-27 22:09:00,77.0,69.4,28.89,NE,48,0.0,5.0,77,0.00,,,0.00,WUHU216DAVISVP2,2013-06-28 02:09:00,
2013-06-27 22:10:00,77.0,69.2,28.89,NE,48,0.0,4.0,77,0.00,,,0.00,WUHU216DAVISVP2,2013-06-28 02:10:00,
2013-06-27 22:11:00,77.0,69.2,28.88,NE,48,1.0,4.0,77,0.00,,,0.00,WUHU216DAVISVP2,2013-06-28 02:11:00,
2013-06-27 22:13:00,77.0,69.2,28.88,NE,48,0.0,4.0,77,0.00,,,0.00,WUHU216DAVISVP2,2013-06-28 02:13:00,
2013-06-27 22:14:00,76.9,69.1,28.88,NE,48,0.0,4.0,77,0.00,,,0.00,WUHU216DAVISVP2,2013-06-28 02:14:00,
2013-06-27 22:16:00,76.9,69.1,28.88,NE,48,0.0,4.0,77,0.00,,,0.00,WUHU216DAVISVP2,2013-06-28 02:16:00,
2013-06-27 22:17:00,76.9,69.1,28.88,NE,48,0.0,4.0,77,0.00,,,0.00,WUHU216DAVISVP2,2013-06-28 02:17:00,
2013-06-27 22:18:00,76.9,69.1,28.89,NE,48,1.0,4.0,77,0.00,,,0.00,WUHU216DAVISVP2,2013-06-28 02:18:00,
2013-06-27 22:20:00,76.9,69.1,28.89,NE,48,0.0,2.0,77,0.00,,,0.00,WUHU216DAVISVP2,2013-06-28 02:20:00,
2013-06-27 22:21:00,76.8,69.0,28.89,NE,48,0.0,2.0,77,0.00,,,0.00,WUHU216DAVISVP2,2013-06-28 02:21:00,
2013-06-27 22:23:00,76.7,69.3,28.89,NE,48,0.0,2.0,78,0.00,,,0.00,WUHU216DAVISVP2,2013-06-28 02:23:00,
2013-06-27 22:24:00,76.7,68.9,28.88,NE,48,0.0,2.0,77,0.00,,,0.00,WUHU216DAVISVP2,2013-06-28 02:24:00,
2013-06-27 22:26:00,76.6,68.8,28.89,NE,48,0.0,2.0,77,0.00,,,0.00,WUHU216DAVISVP2,2013-06-28 02:26:00,
2013-06-27 22:27:00,76.6,68.8,28.88,NE,48,0.0,2.0,77,0.00,,,0.00,WUHU216DAVISVP2,2013-06-28 02:27:00,
2013-06-27 22:28:00,76.6,68.8,28.88,NE,48,0.0,2.0,77,0.00,,,0.00,WUHU216DAVISVP2,2013-06-28 02:28:00,
2013-06-27 22:29:00,76.6,68.8,28.88,NE,48,0.0,2.0,77,0.00,,,0.00,WUHU216DAVISVP2,2013-06-28 02:29:00,
2013-06-27 22:31:00,76.5,69.1,28.88,NE,48,0.0,2.0,78,0.00,,,0.00,WUHU216DAVISVP2,2013-06-28 02:31:00,
2013-06-27 22:33:00,76.4,69.0,28.88,NE,48,0.0,2.0,78,0.00,,,0.00,WUHU216DAVISVP2,2013-06-28 02:33:00,
2013-06-27 22:35:00,76.4,69.0,28.88,NE,48,0.0,2.0,78,0.00,,,0.00,WUHU216DAVISVP2,2013-06-28 02:35:00,
2013-06-27 22:36:00,76.4,69.0,28.89,NE,48,0.0,2.0,78,0.00,,,0.00,WUHU216DAVISVP2,2013-06-28 02:36:00,
2013-06-27 22:39:00,76.3,69.4,28.88,NE,48,0.0,2.0,79,0.00,,,0.00,WUHU216DAVISVP2,2013-06-28 02:39:00,
2013-06-27 22:41:00,76.2,69.3,28.88,NE,48,0.0,2.0,79,0.00,,,0.00,WUHU216DAVISVP2,2013-06-28 02:41:00,
2013-06-27 22:44:00,76.1,69.2,28.88,NE,48,0.0,2.0,79,0.00,,,0.00,WUHU216DAVISVP2,2013-06-28 02:44:00,
2013-06-27 22:46:00,76.0,69.1,28.88,NE,48,0.0,2.0,79,0.00,,,0.00,WUHU216DAVISVP2,2013-06-28 02:46:00,
2013-06-27 22:47:00,76.0,69.1,28.88,NE,48,0.0,2.0,79,0.00,,,0.00,WUHU216DAVISVP2,2013-06-28 02:47:00,
2013-06-27 22:49:00,76.0,69.1,28.88,NE,48,0.0,2.0,79,0.00,,,0.00,WUHU216DAVISVP2,2013-06-28 02:49:00,
2013-06-27 22:52:00,75.8,69.3,28.88,NE,48,2.0,2.0,80,0.00,,,0.00,WUHU216DAVISVP2,2013-06-28 02:52:00,
2013-06-27 22:53:00,75.7,68.8,28.88,NE,48,0.0,4.0,79,0.00,,,0.00,WUHU216DAVISVP2,2013-06-28 02:53:00,
2013-06-27 22:54:00,75.7,69.2,28.88,NE,48,1.0,4.0,80,0.00,,,0.00,WUHU216DAVISVP2,2013-06-28 02:54:00,
2013-06-27 22:57:00,75.4,68.9,28.88,NE,48,1.0,4.0,80,0.00,,,0.00,WUHU216DAVISVP2,2013-06-28 02:57:00,
2013-06-27 22:58:00,75.3,69.2,28.88,NE,48,1.0,4.0,81,0.00,,,0.00,WUHU216DAVISVP2,2013-06-28 02:58:00,
2013-06-27 23:00:00,75.1,69.0,28.88,NE,48,1.0,4.0,81,0.00,,,0.00,WUHU216DAVISVP2,2013-06-28 03:00:00,
2013-06-27 23:03:00,74.9,68.8,28.88,NE,48,0.0,4.0,81,0.00,,,0.00,WUHU216DAVISVP2,2013-06-28 03:03:00,
2013-06-27 23:04:00,74.8,69.0,28.88,NE,48,2.0,4.0,82,0.00,,,0.00,WUHU216DAVISVP2,2013-06-28 03:04:00,
2013-06-27 23:06:00,74.7,68.9,28.88,East,89,4.0,6.0,82,0.00,,,0.00,WUHU216DAVISVP2,2013-06-28 03:06:00,
2013-06-27 23:08:00,74.5,69.1,28.88,ENE,68,7.0,7.0,83,0.00,,,0.00,WUHU216DAVISVP2,2013-06-28 03:08:00,
2013-06-27 23:09:00,74.4,68.6,28.88,East,85,1.0,7.0,82,0.00,,,0.00,WUHU216DAVISVP2,2013-06-28 03:09:00,
2013-06-27 23:10:00,74.4,68.6,28.88,ENE,59,5.0,7.0,82,0.00,,,0.00,WUHU216DAVISVP2,2013-06-28 03:10:00,
2013-06-27 23:11:00,74.2,68.4,28.88,ENE,70,1.0,7.0,82,0.00,,,0.00,WUHU216DAVISVP2,2013-06-28 03:11:00,
2013-06-27 23:13:00,74.0,68.5,28.88,ENE,70,4.0,7.0,83,0.00,,,0.00,WUHU216DAVISVP2,2013-06-28 03:13:00,
2013-06-27 23:14:00,74.0,68.5,28.88,ENE,70,4.0,7.0,83,0.00,,,0.00,WUHU216DAVISVP2,2013-06-28 03:14:00,
2013-06-27 23:16:00,73.9,68.4,28.88,ENE,70,5.0,7.0,83,0.00,,,0.00,WUHU216DAVISVP2,2013-06-28 03:16:00,
2013-06-27 23:19:00,73.6,68.1,28.88,ENE,59,6.0,7.0,83,0.00,,,0.00,WUHU216DAVISVP2,2013-06-28 03:19:00,
2013-06-27 23:20:00,73.5,68.0,28.88,ENE,75,1.0,7.0,83,0.00,,,0.00,WUHU216DAVISVP2,2013-06-28 03:20:00,
2013-06-27 23:21:00,73.4,67.9,28.88,ENE,75,0.0,7.0,83,0.00,,,0.00,WUHU216DAVISVP2,2013-06-28 03:21:00,
2013-06-27 23:24:00,73.3,68.2,28.88,ENE,75,0.0,7.0,84,0.00,,,0.00,WUHU216DAVISVP2,2013-06-28 03:24:00,
2013-06-27 23:25:00,73.2,68.1,28.88,ENE,75,0.0,7.0,84,0.00,,,0.00,WUHU216DAVISVP2,2013-06-28 03:25:00,
2013-06-27 23:27:00,73.0,67.9,28.88,ENE,75,1.0,7.0,84,0.00,,,0.00,WUHU216DAVISVP2,2013-06-28 03:27:00,
2013-06-27 23:30:00,72.9,67.8,28.88,East,81,4.0,6.0,84,0.00,,,0.00,WUHU216DAVISVP2,2013-06-28 03:30:00,
2013-06-27 23:31:00,72.8,67.7,28.88,East,83,3.0,6.0,84,0.00,,,0.00,WUHU216DAVISVP2,2013-06-28 03:31:00,
2013-06-27 23:32:00,72.7,67.6,28.88,East,83,2.0,6.0,84,0.00,,,0.00,WUHU216DAVISVP2,2013-06-28 03:32:00,
2013-06-27 23:35:00,72.6,67.5,28.88,East,83,0.0,6.0,84,0.00,,,0.00,WUHU216DAVISVP2,2013-06-28 03:35:00,
2013-06-27 23:36:00,72.5,67.8,28.88,East,83,0.0,6.0,85,0.00,,,0.00,WUHU216DAVISVP2,2013-06-28 03:36:00,
2013-06-27 23:37:00,72.6,67.9,28.88,East,83,0.0,6.0,85,0.00,,,0.00,WUHU216DAVISVP2,2013-06-28 03:37:00,
2013-06-27 23:41:00,72.4,67.6,28.88,East,83,0.0,6.0,85,0.00,,,0.00,WUHU216DAVISVP2,2013-06-28 03:41:00,
2013-06-27 23:43:00,72.4,67.6,28.88,East,83,0.0,6.0,85,0.00,,,0.00,WUHU216DAVISVP2,2013-06-28 03:43:00,
2013-06-27 23:46:00,72.3,67.5,28.88,East,83,0.0,6.0,85,0.00,,,0.00,WUHU216DAVISVP2,2013-06-28 03:46:00,
2013-06-27 23:47:00,72.2,67.8,28.88,East,83,0.0,6.0,86,0.00,,,0.00,WUHU216DAVISVP2,2013-06-28 03:47:00,
2013-06-27 23:48:00,72.2,67.8,28.88,East,83,0.0,5.0,86,0.00,,,0.00,WUHU216DAVISVP2,2013-06-28 03:48:00,
2013-06-27 23:52:00,72.1,67.7,28.88,East,83,0.0,2.0,86,0.00,,,0.00,WUHU216DAVISVP2,2013-06-28 03:52:00,
2013-06-27 23:53:00,72.1,67.7,28.88,East,83,0.0,4.0,86,0.00,,,0.00,WUHU216DAVISVP2,2013-06-28 03:53:00,
2013-06-27 23:55:00,71.9,67.5,28.87,East,83,0.0,4.0,86,0.00,,,0.00,WUHU216DAVISVP2,2013-06-28 03:55:00,
2013-06-27 23:57:00,71.8,67.7,28.87,East,83,0.0,4.0,87,0.00,,,0.00,WUHU216DAVISVP2,2013-06-28 03:57:00,
2013-06-27 23:58:00,71.8,67.4,28.87,East,82,1.0,4.0,86,0.00,,,0.00,WUHU216DAVISVP2,2013-06-28 03:58:00,